<?xml version="1.0" encoding="UTF-8" standalone="no" ?>
<gpx xmlns="http://www.topografix.com/GPX/1/1" xmlns:xsi="http://www.w3.org/2001/XMLSchema-instance" xsi:schemaLocation="http://www.topografix.com/GPX/1/1 http://www.topografix.com/GPX/1/1/gpx.xsd" version="1.1" creator="VisuGPX - https://www.visugpx.com">
  <metadata>
    <name>Montdauphin, Gros, Maison du Roi, Guillestre</name>
    <desc><![CDATA[Descente vers la Maison du Roi: tracé VTT "rouge]]></desc>
  </metadata>
  <trk>
    <name><![CDATA[100816-Gros-Maison-du-Roi]]></name>
    <trkseg>
      <trkpt lat="44.6602" lon="6.62833">
        <ele>918.863098</ele>
        <time>2010-08-16T09:06:52Z</time>
      </trkpt>
      <trkpt lat="44.66032" lon="6.62815">
        <ele>917.886841</ele>
        <time>2010-08-16T09:07:55Z</time>
      </trkpt>
      <trkpt lat="44.66037" lon="6.62815">
        <ele>918.076111</ele>
        <time>2010-08-16T09:07:57Z</time>
      </trkpt>
      <trkpt lat="44.6603" lon="6.62833">
        <ele>919.259399</ele>
        <time>2010-08-16T09:08:16Z</time>
      </trkpt>
      <trkpt lat="44.66023" lon="6.62855">
        <ele>920.7453</ele>
        <time>2010-08-16T09:09:56Z</time>
      </trkpt>
      <trkpt lat="44.66033" lon="6.62842">
        <ele>920.098022</ele>
        <time>2010-08-16T09:10:30Z</time>
      </trkpt>
      <trkpt lat="44.66047" lon="6.62835">
        <ele>920.120178</ele>
        <time>2010-08-16T09:10:37Z</time>
      </trkpt>
      <trkpt lat="44.66062" lon="6.62837">
        <ele>920.914429</ele>
        <time>2010-08-16T09:10:44Z</time>
      </trkpt>
      <trkpt lat="44.66087" lon="6.62832">
        <ele>921.770508</ele>
        <time>2010-08-16T09:11:01Z</time>
      </trkpt>
      <trkpt lat="44.661" lon="6.62825">
        <ele>921.875</ele>
        <time>2010-08-16T09:11:05Z</time>
      </trkpt>
      <trkpt lat="44.66118" lon="6.62825">
        <ele>922.989563</ele>
        <time>2010-08-16T09:15:24Z</time>
      </trkpt>
      <trkpt lat="44.66135" lon="6.62808">
        <ele>922.982178</ele>
        <time>2010-08-16T09:15:32Z</time>
      </trkpt>
      <trkpt lat="44.66165" lon="6.62778">
        <ele>920.950867</ele>
        <time>2010-08-16T09:15:40Z</time>
      </trkpt>
      <trkpt lat="44.66208" lon="6.62733">
        <ele>918.065491</ele>
        <time>2010-08-16T09:15:49Z</time>
      </trkpt>
      <trkpt lat="44.66222" lon="6.62725">
        <ele>917.513306</ele>
        <time>2010-08-16T09:15:51Z</time>
      </trkpt>
      <trkpt lat="44.66235" lon="6.62718">
        <ele>916.967896</ele>
        <time>2010-08-16T09:15:54Z</time>
      </trkpt>
      <trkpt lat="44.66255" lon="6.6271">
        <ele>915.885742</ele>
        <time>2010-08-16T09:15:56Z</time>
      </trkpt>
      <trkpt lat="44.66333" lon="6.62675">
        <ele>913.377991</ele>
        <time>2010-08-16T09:16:07Z</time>
      </trkpt>
      <trkpt lat="44.66343" lon="6.62662">
        <ele>911.234436</ele>
        <time>2010-08-16T09:16:09Z</time>
      </trkpt>
      <trkpt lat="44.66353" lon="6.62647">
        <ele>908.983582</ele>
        <time>2010-08-16T09:16:11Z</time>
      </trkpt>
      <trkpt lat="44.66362" lon="6.62632">
        <ele>906.904846</ele>
        <time>2010-08-16T09:16:13Z</time>
      </trkpt>
      <trkpt lat="44.6637" lon="6.62602">
        <ele>903.18811</ele>
        <time>2010-08-16T09:16:17Z</time>
      </trkpt>
      <trkpt lat="44.66378" lon="6.62583">
        <ele>900.993896</ele>
        <time>2010-08-16T09:16:22Z</time>
      </trkpt>
      <trkpt lat="44.6639" lon="6.6256">
        <ele>898.562927</ele>
        <time>2010-08-16T09:16:33Z</time>
      </trkpt>
      <trkpt lat="44.664" lon="6.62538">
        <ele>896.789307</ele>
        <time>2010-08-16T09:16:40Z</time>
      </trkpt>
      <trkpt lat="44.6641" lon="6.62512">
        <ele>906.778259</ele>
        <time>2010-08-16T09:16:49Z</time>
      </trkpt>
      <trkpt lat="44.66412" lon="6.62492">
        <ele>914.034729</ele>
        <time>2010-08-16T09:16:58Z</time>
      </trkpt>
      <trkpt lat="44.66402" lon="6.62475">
        <ele>910.435913</ele>
        <time>2010-08-16T09:17:05Z</time>
      </trkpt>
      <trkpt lat="44.66378" lon="6.62422">
        <ele>907.625732</ele>
        <time>2010-08-16T09:17:17Z</time>
      </trkpt>
      <trkpt lat="44.66375" lon="6.624">
        <ele>906.837158</ele>
        <time>2010-08-16T09:17:21Z</time>
      </trkpt>
      <trkpt lat="44.66378" lon="6.62368">
        <ele>904.44342</ele>
        <time>2010-08-16T09:17:26Z</time>
      </trkpt>
      <trkpt lat="44.66388" lon="6.62343">
        <ele>904.490173</ele>
        <time>2010-08-16T09:17:30Z</time>
      </trkpt>
      <trkpt lat="44.66397" lon="6.62315">
        <ele>902.068787</ele>
        <time>2010-08-16T09:17:34Z</time>
      </trkpt>
      <trkpt lat="44.66407" lon="6.62287">
        <ele>898.167297</ele>
        <time>2010-08-16T09:17:38Z</time>
      </trkpt>
      <trkpt lat="44.6647" lon="6.6212">
        <ele>892.519409</ele>
        <time>2010-08-16T09:18:03Z</time>
      </trkpt>
      <trkpt lat="44.66485" lon="6.621">
        <ele>893.166443</ele>
        <time>2010-08-16T09:18:07Z</time>
      </trkpt>
      <trkpt lat="44.66497" lon="6.62087">
        <ele>893.795532</ele>
        <time>2010-08-16T09:18:10Z</time>
      </trkpt>
      <trkpt lat="44.66522" lon="6.62063">
        <ele>896.418274</ele>
        <time>2010-08-16T09:18:16Z</time>
      </trkpt>
      <trkpt lat="44.6655" lon="6.62033">
        <ele>897.747681</ele>
        <time>2010-08-16T09:18:23Z</time>
      </trkpt>
      <trkpt lat="44.66582" lon="6.62002">
        <ele>899.91925</ele>
        <time>2010-08-16T09:18:30Z</time>
      </trkpt>
      <trkpt lat="44.666" lon="6.61988">
        <ele>899.83667</ele>
        <time>2010-08-16T09:18:34Z</time>
      </trkpt>
      <trkpt lat="44.66618" lon="6.61977">
        <ele>898.961426</ele>
        <time>2010-08-16T09:18:38Z</time>
      </trkpt>
      <trkpt lat="44.66643" lon="6.61963">
        <ele>898.976624</ele>
        <time>2010-08-16T09:18:43Z</time>
      </trkpt>
      <trkpt lat="44.66675" lon="6.61945">
        <ele>900.345459</ele>
        <time>2010-08-16T09:18:49Z</time>
      </trkpt>
      <trkpt lat="44.66698" lon="6.61933">
        <ele>900.035461</ele>
        <time>2010-08-16T09:18:54Z</time>
      </trkpt>
      <trkpt lat="44.66718" lon="6.61927">
        <ele>899.228394</ele>
        <time>2010-08-16T09:18:58Z</time>
      </trkpt>
      <trkpt lat="44.66742" lon="6.61923">
        <ele>899</ele>
        <time>2010-08-16T09:19:03Z</time>
      </trkpt>
      <trkpt lat="44.66788" lon="6.61915">
        <ele>899.076172</ele>
        <time>2010-08-16T09:19:12Z</time>
      </trkpt>
      <trkpt lat="44.66812" lon="6.61908">
        <ele>899.380798</ele>
        <time>2010-08-16T09:19:16Z</time>
      </trkpt>
      <trkpt lat="44.66848" lon="6.61897">
        <ele>900.372437</ele>
        <time>2010-08-16T09:19:23Z</time>
      </trkpt>
      <trkpt lat="44.66893" lon="6.61883">
        <ele>900.238403</ele>
        <time>2010-08-16T09:19:32Z</time>
      </trkpt>
      <trkpt lat="44.66903" lon="6.61868">
        <ele>898.876099</ele>
        <time>2010-08-16T09:19:37Z</time>
      </trkpt>
      <trkpt lat="44.66915" lon="6.6185">
        <ele>898.571533</ele>
        <time>2010-08-16T09:19:41Z</time>
      </trkpt>
      <trkpt lat="44.66935" lon="6.61848">
        <ele>898.520874</ele>
        <time>2010-08-16T09:19:45Z</time>
      </trkpt>
      <trkpt lat="44.66963" lon="6.61848">
        <ele>898.486572</ele>
        <time>2010-08-16T09:19:50Z</time>
      </trkpt>
      <trkpt lat="44.67008" lon="6.61848">
        <ele>898.432129</ele>
        <time>2010-08-16T09:19:57Z</time>
      </trkpt>
      <trkpt lat="44.67033" lon="6.61845">
        <ele>898.348999</ele>
        <time>2010-08-16T09:20:01Z</time>
      </trkpt>
      <trkpt lat="44.67063" lon="6.61842">
        <ele>898.153442</ele>
        <time>2010-08-16T09:20:06Z</time>
      </trkpt>
      <trkpt lat="44.67088" lon="6.61837">
        <ele>897.560242</ele>
        <time>2010-08-16T09:20:10Z</time>
      </trkpt>
      <trkpt lat="44.6711" lon="6.61833">
        <ele>897.130371</ele>
        <time>2010-08-16T09:20:14Z</time>
      </trkpt>
      <trkpt lat="44.67125" lon="6.61847">
        <ele>897.39209</ele>
        <time>2010-08-16T09:20:19Z</time>
      </trkpt>
      <trkpt lat="44.6713" lon="6.6187">
        <ele>897.848816</ele>
        <time>2010-08-16T09:20:25Z</time>
      </trkpt>
      <trkpt lat="44.67138" lon="6.61895">
        <ele>898.223755</ele>
        <time>2010-08-16T09:20:34Z</time>
      </trkpt>
      <trkpt lat="44.67145" lon="6.61913">
        <ele>899.150024</ele>
        <time>2010-08-16T09:20:39Z</time>
      </trkpt>
      <trkpt lat="44.67153" lon="6.61933">
        <ele>899.791138</ele>
        <time>2010-08-16T09:20:45Z</time>
      </trkpt>
      <trkpt lat="44.67152" lon="6.61955">
        <ele>901.013367</ele>
        <time>2010-08-16T09:20:52Z</time>
      </trkpt>
      <trkpt lat="44.67155" lon="6.61978">
        <ele>904.302307</ele>
        <time>2010-08-16T09:21:00Z</time>
      </trkpt>
      <trkpt lat="44.67163" lon="6.61993">
        <ele>905.716309</ele>
        <time>2010-08-16T09:21:07Z</time>
      </trkpt>
      <trkpt lat="44.67178" lon="6.62002">
        <ele>904.883057</ele>
        <time>2010-08-16T09:21:15Z</time>
      </trkpt>
      <trkpt lat="44.67193" lon="6.62012">
        <ele>904.45874</ele>
        <time>2010-08-16T09:21:22Z</time>
      </trkpt>
      <trkpt lat="44.67207" lon="6.62017">
        <ele>903.680176</ele>
        <time>2010-08-16T09:21:29Z</time>
      </trkpt>
      <trkpt lat="44.6722" lon="6.62025">
        <ele>902.967957</ele>
        <time>2010-08-16T09:21:36Z</time>
      </trkpt>
      <trkpt lat="44.67237" lon="6.62035">
        <ele>903.212219</ele>
        <time>2010-08-16T09:21:44Z</time>
      </trkpt>
      <trkpt lat="44.67248" lon="6.62045">
        <ele>904.421204</ele>
        <time>2010-08-16T09:21:51Z</time>
      </trkpt>
      <trkpt lat="44.6726" lon="6.62057">
        <ele>905.708313</ele>
        <time>2010-08-16T09:23:00Z</time>
      </trkpt>
      <trkpt lat="44.67273" lon="6.62067">
        <ele>906.273254</ele>
        <time>2010-08-16T09:23:09Z</time>
      </trkpt>
      <trkpt lat="44.67287" lon="6.62078">
        <ele>907.143188</ele>
        <time>2010-08-16T09:23:17Z</time>
      </trkpt>
      <trkpt lat="44.67295" lon="6.62102">
        <ele>910.184753</ele>
        <time>2010-08-16T09:23:26Z</time>
      </trkpt>
      <trkpt lat="44.67302" lon="6.62118">
        <ele>912.674072</ele>
        <time>2010-08-16T09:23:32Z</time>
      </trkpt>
      <trkpt lat="44.67308" lon="6.62135">
        <ele>915.080139</ele>
        <time>2010-08-16T09:23:39Z</time>
      </trkpt>
      <trkpt lat="44.67318" lon="6.62148">
        <ele>916.449768</ele>
        <time>2010-08-16T09:23:45Z</time>
      </trkpt>
      <trkpt lat="44.6733" lon="6.62158">
        <ele>917.11261</ele>
        <time>2010-08-16T09:23:52Z</time>
      </trkpt>
      <trkpt lat="44.67343" lon="6.62167">
        <ele>917.395081</ele>
        <time>2010-08-16T09:23:59Z</time>
      </trkpt>
      <trkpt lat="44.67362" lon="6.62177">
        <ele>917.498657</ele>
        <time>2010-08-16T09:24:08Z</time>
      </trkpt>
      <trkpt lat="44.67378" lon="6.62188">
        <ele>918.348083</ele>
        <time>2010-08-16T09:24:17Z</time>
      </trkpt>
      <trkpt lat="44.67388" lon="6.62202">
        <ele>920.015747</ele>
        <time>2010-08-16T09:24:23Z</time>
      </trkpt>
      <trkpt lat="44.67398" lon="6.62217">
        <ele>921.904297</ele>
        <time>2010-08-16T09:24:34Z</time>
      </trkpt>
      <trkpt lat="44.67408" lon="6.62235">
        <ele>924.587097</ele>
        <time>2010-08-16T09:24:45Z</time>
      </trkpt>
      <trkpt lat="44.67395" lon="6.62242">
        <ele>927.775391</ele>
        <time>2010-08-16T09:24:56Z</time>
      </trkpt>
      <trkpt lat="44.67382" lon="6.62237">
        <ele>928.029358</ele>
        <time>2010-08-16T09:25:05Z</time>
      </trkpt>
      <trkpt lat="44.67387" lon="6.62257">
        <ele>932.652771</ele>
        <time>2010-08-16T09:25:23Z</time>
      </trkpt>
      <trkpt lat="44.674" lon="6.62267">
        <ele>933.443848</ele>
        <time>2010-08-16T09:25:34Z</time>
      </trkpt>
      <trkpt lat="44.67418" lon="6.62283">
        <ele>934.936035</ele>
        <time>2010-08-16T09:25:47Z</time>
      </trkpt>
      <trkpt lat="44.67435" lon="6.62297">
        <ele>935.570557</ele>
        <time>2010-08-16T09:25:58Z</time>
      </trkpt>
      <trkpt lat="44.67447" lon="6.62312">
        <ele>937.476807</ele>
        <time>2010-08-16T09:26:07Z</time>
      </trkpt>
      <trkpt lat="44.67458" lon="6.62327">
        <ele>939.139832</ele>
        <time>2010-08-16T09:26:16Z</time>
      </trkpt>
      <trkpt lat="44.67475" lon="6.62348">
        <ele>941.146973</ele>
        <time>2010-08-16T09:26:29Z</time>
      </trkpt>
      <trkpt lat="44.6749" lon="6.62358">
        <ele>940.62262</ele>
        <time>2010-08-16T09:26:38Z</time>
      </trkpt>
      <trkpt lat="44.67512" lon="6.62373">
        <ele>940.257935</ele>
        <time>2010-08-16T09:26:51Z</time>
      </trkpt>
      <trkpt lat="44.67528" lon="6.62383">
        <ele>939.461609</ele>
        <time>2010-08-16T09:27:00Z</time>
      </trkpt>
      <trkpt lat="44.67543" lon="6.62395">
        <ele>939.90387</ele>
        <time>2010-08-16T09:27:09Z</time>
      </trkpt>
      <trkpt lat="44.67602" lon="6.62442">
        <ele>943.065125</ele>
        <time>2010-08-16T09:27:40Z</time>
      </trkpt>
      <trkpt lat="44.67612" lon="6.62463">
        <ele>944.991943</ele>
        <time>2010-08-16T09:27:49Z</time>
      </trkpt>
      <trkpt lat="44.67617" lon="6.62487">
        <ele>947.507202</ele>
        <time>2010-08-16T09:27:58Z</time>
      </trkpt>
      <trkpt lat="44.67622" lon="6.6251">
        <ele>949.168091</ele>
        <time>2010-08-16T09:28:07Z</time>
      </trkpt>
      <trkpt lat="44.67627" lon="6.62532">
        <ele>950.181824</ele>
        <time>2010-08-16T09:30:20Z</time>
      </trkpt>
      <trkpt lat="44.67627" lon="6.62555">
        <ele>952.01886</ele>
        <time>2010-08-16T09:30:27Z</time>
      </trkpt>
      <trkpt lat="44.6763" lon="6.62623">
        <ele>958.496277</ele>
        <time>2010-08-16T09:30:46Z</time>
      </trkpt>
      <trkpt lat="44.67637" lon="6.62642">
        <ele>959.737915</ele>
        <time>2010-08-16T09:30:52Z</time>
      </trkpt>
      <trkpt lat="44.67645" lon="6.62657">
        <ele>960.207703</ele>
        <time>2010-08-16T09:30:57Z</time>
      </trkpt>
      <trkpt lat="44.67653" lon="6.62673">
        <ele>960.813416</ele>
        <time>2010-08-16T09:31:04Z</time>
      </trkpt>
      <trkpt lat="44.67663" lon="6.62697">
        <ele>962.22583</ele>
        <time>2010-08-16T09:31:10Z</time>
      </trkpt>
      <trkpt lat="44.67668" lon="6.62715">
        <ele>964.338989</ele>
        <time>2010-08-16T09:31:15Z</time>
      </trkpt>
      <trkpt lat="44.67677" lon="6.62737">
        <ele>966.373352</ele>
        <time>2010-08-16T09:31:21Z</time>
      </trkpt>
      <trkpt lat="44.67685" lon="6.62753">
        <ele>967.570984</ele>
        <time>2010-08-16T09:31:26Z</time>
      </trkpt>
      <trkpt lat="44.67708" lon="6.62795">
        <ele>970.208679</ele>
        <time>2010-08-16T09:31:39Z</time>
      </trkpt>
      <trkpt lat="44.67717" lon="6.6281">
        <ele>971.098877</ele>
        <time>2010-08-16T09:31:44Z</time>
      </trkpt>
      <trkpt lat="44.67723" lon="6.62827">
        <ele>972.393005</ele>
        <time>2010-08-16T09:31:49Z</time>
      </trkpt>
      <trkpt lat="44.67735" lon="6.62848">
        <ele>972.818848</ele>
        <time>2010-08-16T09:31:56Z</time>
      </trkpt>
      <trkpt lat="44.67745" lon="6.62865">
        <ele>972.59552</ele>
        <time>2010-08-16T09:32:03Z</time>
      </trkpt>
      <trkpt lat="44.67758" lon="6.62882">
        <ele>971.129883</ele>
        <time>2010-08-16T09:32:09Z</time>
      </trkpt>
      <trkpt lat="44.6777" lon="6.62895">
        <ele>969.41626</ele>
        <time>2010-08-16T09:32:18Z</time>
      </trkpt>
      <trkpt lat="44.67783" lon="6.62907">
        <ele>967.196777</ele>
        <time>2010-08-16T09:35:59Z</time>
      </trkpt>
      <trkpt lat="44.67793" lon="6.62922">
        <ele>966.635376</ele>
        <time>2010-08-16T09:36:06Z</time>
      </trkpt>
      <trkpt lat="44.67788" lon="6.6294">
        <ele>968.942566</ele>
        <time>2010-08-16T09:36:15Z</time>
      </trkpt>
      <trkpt lat="44.67772" lon="6.62935">
        <ele>972.743958</ele>
        <time>2010-08-16T09:36:23Z</time>
      </trkpt>
      <trkpt lat="44.67757" lon="6.62927">
        <ele>976.364563</ele>
        <time>2010-08-16T09:36:30Z</time>
      </trkpt>
      <trkpt lat="44.67743" lon="6.62917">
        <ele>979.067566</ele>
        <time>2010-08-16T09:36:37Z</time>
      </trkpt>
      <trkpt lat="44.6773" lon="6.62907">
        <ele>981.381592</ele>
        <time>2010-08-16T09:36:43Z</time>
      </trkpt>
      <trkpt lat="44.67715" lon="6.62895">
        <ele>983.656738</ele>
        <time>2010-08-16T09:36:50Z</time>
      </trkpt>
      <trkpt lat="44.67668" lon="6.62858">
        <ele>987.980774</ele>
        <time>2010-08-16T09:37:10Z</time>
      </trkpt>
      <trkpt lat="44.67653" lon="6.62852">
        <ele>989.59198</ele>
        <time>2010-08-16T09:37:15Z</time>
      </trkpt>
      <trkpt lat="44.67637" lon="6.62848">
        <ele>991.667908</ele>
        <time>2010-08-16T09:37:21Z</time>
      </trkpt>
      <trkpt lat="44.67622" lon="6.62843">
        <ele>993.144653</ele>
        <time>2010-08-16T09:37:26Z</time>
      </trkpt>
      <trkpt lat="44.67605" lon="6.62828">
        <ele>993.728516</ele>
        <time>2010-08-16T09:37:33Z</time>
      </trkpt>
      <trkpt lat="44.67595" lon="6.62805">
        <ele>992.674927</ele>
        <time>2010-08-16T09:37:40Z</time>
      </trkpt>
      <trkpt lat="44.67583" lon="6.62788">
        <ele>992.769653</ele>
        <time>2010-08-16T09:37:46Z</time>
      </trkpt>
      <trkpt lat="44.67572" lon="6.62777">
        <ele>993.616394</ele>
        <time>2010-08-16T09:37:51Z</time>
      </trkpt>
      <trkpt lat="44.67555" lon="6.62762">
        <ele>994.967896</ele>
        <time>2010-08-16T09:37:58Z</time>
      </trkpt>
      <trkpt lat="44.67538" lon="6.62752">
        <ele>996.835205</ele>
        <time>2010-08-16T09:38:04Z</time>
      </trkpt>
      <trkpt lat="44.67522" lon="6.62743">
        <ele>999.099487</ele>
        <time>2010-08-16T09:38:11Z</time>
      </trkpt>
      <trkpt lat="44.67478" lon="6.62722">
        <ele>1001.57666</ele>
        <time>2010-08-16T09:38:29Z</time>
      </trkpt>
      <trkpt lat="44.67465" lon="6.62725">
        <ele>1003.347046</ele>
        <time>2010-08-16T09:38:34Z</time>
      </trkpt>
      <trkpt lat="44.67453" lon="6.62738">
        <ele>1005.651855</ele>
        <time>2010-08-16T09:38:40Z</time>
      </trkpt>
      <trkpt lat="44.67435" lon="6.62758">
        <ele>1008.03595</ele>
        <time>2010-08-16T09:38:49Z</time>
      </trkpt>
      <trkpt lat="44.67407" lon="6.62788">
        <ele>1010.927856</ele>
        <time>2010-08-16T09:39:02Z</time>
      </trkpt>
      <trkpt lat="44.67397" lon="6.62802">
        <ele>1011.9646</ele>
        <time>2010-08-16T09:39:07Z</time>
      </trkpt>
      <trkpt lat="44.6739" lon="6.62818">
        <ele>1012.69458</ele>
        <time>2010-08-16T09:39:12Z</time>
      </trkpt>
      <trkpt lat="44.67383" lon="6.62838">
        <ele>1013.403564</ele>
        <time>2010-08-16T09:39:18Z</time>
      </trkpt>
      <trkpt lat="44.67378" lon="6.62858">
        <ele>1013.951111</ele>
        <time>2010-08-16T09:39:23Z</time>
      </trkpt>
      <trkpt lat="44.67375" lon="6.62882">
        <ele>1014.865417</ele>
        <time>2010-08-16T09:39:29Z</time>
      </trkpt>
      <trkpt lat="44.67373" lon="6.62902">
        <ele>1015.58197</ele>
        <time>2010-08-16T09:39:34Z</time>
      </trkpt>
      <trkpt lat="44.67373" lon="6.62922">
        <ele>1016.146423</ele>
        <time>2010-08-16T09:39:39Z</time>
      </trkpt>
      <trkpt lat="44.67375" lon="6.62947">
        <ele>1016.712219</ele>
        <time>2010-08-16T09:39:45Z</time>
      </trkpt>
      <trkpt lat="44.67377" lon="6.62985">
        <ele>1017.630188</ele>
        <time>2010-08-16T09:39:54Z</time>
      </trkpt>
      <trkpt lat="44.67378" lon="6.63032">
        <ele>1018.917664</ele>
        <time>2010-08-16T09:40:05Z</time>
      </trkpt>
      <trkpt lat="44.67382" lon="6.63062">
        <ele>1020.311829</ele>
        <time>2010-08-16T09:40:12Z</time>
      </trkpt>
      <trkpt lat="44.67382" lon="6.63087">
        <ele>1022.385376</ele>
        <time>2010-08-16T09:40:18Z</time>
      </trkpt>
      <trkpt lat="44.6738" lon="6.63113">
        <ele>1024.638794</ele>
        <time>2010-08-16T09:40:25Z</time>
      </trkpt>
      <trkpt lat="44.67378" lon="6.63138">
        <ele>1024.936523</ele>
        <time>2010-08-16T09:40:32Z</time>
      </trkpt>
      <trkpt lat="44.6738" lon="6.63158">
        <ele>1025.081787</ele>
        <time>2010-08-16T09:40:39Z</time>
      </trkpt>
      <trkpt lat="44.67388" lon="6.63177">
        <ele>1025.311157</ele>
        <time>2010-08-16T09:44:16Z</time>
      </trkpt>
      <trkpt lat="44.67395" lon="6.63197">
        <ele>1022.45459</ele>
        <time>2010-08-16T09:44:21Z</time>
      </trkpt>
      <trkpt lat="44.67403" lon="6.63212">
        <ele>1021.393921</ele>
        <time>2010-08-16T09:44:25Z</time>
      </trkpt>
      <trkpt lat="44.67417" lon="6.63232">
        <ele>1020.889465</ele>
        <time>2010-08-16T09:44:30Z</time>
      </trkpt>
      <trkpt lat="44.6744" lon="6.63245">
        <ele>1022.878357</ele>
        <time>2010-08-16T09:44:34Z</time>
      </trkpt>
      <trkpt lat="44.67482" lon="6.63275">
        <ele>1022.503052</ele>
        <time>2010-08-16T09:44:44Z</time>
      </trkpt>
      <trkpt lat="44.67495" lon="6.63288">
        <ele>1023.247009</ele>
        <time>2010-08-16T09:44:48Z</time>
      </trkpt>
      <trkpt lat="44.67508" lon="6.63302">
        <ele>1023.96051</ele>
        <time>2010-08-16T09:44:53Z</time>
      </trkpt>
      <trkpt lat="44.67528" lon="6.6332">
        <ele>1025.071167</ele>
        <time>2010-08-16T09:45:01Z</time>
      </trkpt>
      <trkpt lat="44.6754" lon="6.63333">
        <ele>1024.797607</ele>
        <time>2010-08-16T09:45:06Z</time>
      </trkpt>
      <trkpt lat="44.67585" lon="6.63385">
        <ele>1027.636108</ele>
        <time>2010-08-16T09:45:26Z</time>
      </trkpt>
      <trkpt lat="44.67598" lon="6.63395">
        <ele>1027.46106</ele>
        <time>2010-08-16T09:45:33Z</time>
      </trkpt>
      <trkpt lat="44.67612" lon="6.634">
        <ele>1027.907471</ele>
        <time>2010-08-16T09:45:40Z</time>
      </trkpt>
      <trkpt lat="44.67625" lon="6.63407">
        <ele>1028.669678</ele>
        <time>2010-08-16T09:45:47Z</time>
      </trkpt>
      <trkpt lat="44.67638" lon="6.63418">
        <ele>1029.133789</ele>
        <time>2010-08-16T09:45:56Z</time>
      </trkpt>
      <trkpt lat="44.6765" lon="6.63428">
        <ele>1029.782104</ele>
        <time>2010-08-16T09:46:03Z</time>
      </trkpt>
      <trkpt lat="44.6766" lon="6.63443">
        <ele>1031.111572</ele>
        <time>2010-08-16T09:46:12Z</time>
      </trkpt>
      <trkpt lat="44.67675" lon="6.63463">
        <ele>1032.504883</ele>
        <time>2010-08-16T09:46:24Z</time>
      </trkpt>
      <trkpt lat="44.67685" lon="6.63478">
        <ele>1033.351318</ele>
        <time>2010-08-16T09:46:33Z</time>
      </trkpt>
      <trkpt lat="44.67702" lon="6.635">
        <ele>1035.236816</ele>
        <time>2010-08-16T09:46:46Z</time>
      </trkpt>
      <trkpt lat="44.67713" lon="6.63515">
        <ele>1036.941406</ele>
        <time>2010-08-16T09:46:55Z</time>
      </trkpt>
      <trkpt lat="44.67725" lon="6.63527">
        <ele>1038.200684</ele>
        <time>2010-08-16T09:47:04Z</time>
      </trkpt>
      <trkpt lat="44.67753" lon="6.63552">
        <ele>1041.98584</ele>
        <time>2010-08-16T09:47:23Z</time>
      </trkpt>
      <trkpt lat="44.67762" lon="6.6357">
        <ele>1044.338623</ele>
        <time>2010-08-16T09:47:32Z</time>
      </trkpt>
      <trkpt lat="44.67762" lon="6.6359">
        <ele>1046.827148</ele>
        <time>2010-08-16T09:47:41Z</time>
      </trkpt>
      <trkpt lat="44.67757" lon="6.63612">
        <ele>1049.301392</ele>
        <time>2010-08-16T09:47:50Z</time>
      </trkpt>
      <trkpt lat="44.6775" lon="6.6363">
        <ele>1051.081421</ele>
        <time>2010-08-16T09:47:59Z</time>
      </trkpt>
      <trkpt lat="44.67742" lon="6.63648">
        <ele>1052.419312</ele>
        <time>2010-08-16T09:48:08Z</time>
      </trkpt>
      <trkpt lat="44.67732" lon="6.63675">
        <ele>1053.833984</ele>
        <time>2010-08-16T09:48:21Z</time>
      </trkpt>
      <trkpt lat="44.67725" lon="6.63693">
        <ele>1054.630737</ele>
        <time>2010-08-16T09:48:30Z</time>
      </trkpt>
      <trkpt lat="44.6772" lon="6.63713">
        <ele>1055.23291</ele>
        <time>2010-08-16T09:48:39Z</time>
      </trkpt>
      <trkpt lat="44.67713" lon="6.63733">
        <ele>1054.66626</ele>
        <time>2010-08-16T09:54:20Z</time>
      </trkpt>
      <trkpt lat="44.67708" lon="6.63755">
        <ele>1054.120483</ele>
        <time>2010-08-16T09:54:31Z</time>
      </trkpt>
      <trkpt lat="44.67703" lon="6.63782">
        <ele>1052.499878</ele>
        <time>2010-08-16T09:54:42Z</time>
      </trkpt>
      <trkpt lat="44.67702" lon="6.63803">
        <ele>1050.944458</ele>
        <time>2010-08-16T09:54:51Z</time>
      </trkpt>
      <trkpt lat="44.67707" lon="6.63825">
        <ele>1051.507202</ele>
        <time>2010-08-16T09:55:00Z</time>
      </trkpt>
      <trkpt lat="44.67713" lon="6.63842">
        <ele>1053.505127</ele>
        <time>2010-08-16T09:55:07Z</time>
      </trkpt>
      <trkpt lat="44.6772" lon="6.6386">
        <ele>1056.037109</ele>
        <time>2010-08-16T09:55:16Z</time>
      </trkpt>
      <trkpt lat="44.67727" lon="6.63882">
        <ele>1059.02063</ele>
        <time>2010-08-16T09:55:25Z</time>
      </trkpt>
      <trkpt lat="44.6773" lon="6.63902">
        <ele>1060.727173</ele>
        <time>2010-08-16T09:55:34Z</time>
      </trkpt>
      <trkpt lat="44.67735" lon="6.63922">
        <ele>1062.577271</ele>
        <time>2010-08-16T09:55:43Z</time>
      </trkpt>
      <trkpt lat="44.67738" lon="6.63943">
        <ele>1063.641724</ele>
        <time>2010-08-16T09:55:52Z</time>
      </trkpt>
      <trkpt lat="44.67743" lon="6.63965">
        <ele>1064.989502</ele>
        <time>2010-08-16T09:56:01Z</time>
      </trkpt>
      <trkpt lat="44.67755" lon="6.63977">
        <ele>1068.434937</ele>
        <time>2010-08-16T09:56:10Z</time>
      </trkpt>
      <trkpt lat="44.67755" lon="6.63952">
        <ele>1069.284058</ele>
        <time>2010-08-16T09:56:21Z</time>
      </trkpt>
      <trkpt lat="44.67752" lon="6.63928">
        <ele>1068.673096</ele>
        <time>2010-08-16T09:56:30Z</time>
      </trkpt>
      <trkpt lat="44.6775" lon="6.63903">
        <ele>1068.619751</ele>
        <time>2010-08-16T09:56:37Z</time>
      </trkpt>
      <trkpt lat="44.67752" lon="6.63878">
        <ele>1068.213989</ele>
        <time>2010-08-16T09:56:43Z</time>
      </trkpt>
      <trkpt lat="44.67763" lon="6.63858">
        <ele>1070.548706</ele>
        <time>2010-08-16T09:56:50Z</time>
      </trkpt>
      <trkpt lat="44.67778" lon="6.63848">
        <ele>1074.022339</ele>
        <time>2010-08-16T09:56:56Z</time>
      </trkpt>
      <trkpt lat="44.67792" lon="6.63842">
        <ele>1076.75708</ele>
        <time>2010-08-16T09:57:03Z</time>
      </trkpt>
      <trkpt lat="44.67805" lon="6.63833">
        <ele>1078.155762</ele>
        <time>2010-08-16T09:57:10Z</time>
      </trkpt>
      <trkpt lat="44.67822" lon="6.63825">
        <ele>1080.007446</ele>
        <time>2010-08-16T09:57:19Z</time>
      </trkpt>
      <trkpt lat="44.67837" lon="6.63817">
        <ele>1081.343506</ele>
        <time>2010-08-16T09:57:27Z</time>
      </trkpt>
      <trkpt lat="44.67852" lon="6.63808">
        <ele>1081.154297</ele>
        <time>2010-08-16T09:57:36Z</time>
      </trkpt>
      <trkpt lat="44.67867" lon="6.63815">
        <ele>1082.470459</ele>
        <time>2010-08-16T09:57:45Z</time>
      </trkpt>
      <trkpt lat="44.67867" lon="6.63838">
        <ele>1084.317993</ele>
        <time>2010-08-16T09:57:55Z</time>
      </trkpt>
      <trkpt lat="44.67862" lon="6.63857">
        <ele>1086.010376</ele>
        <time>2010-08-16T09:58:03Z</time>
      </trkpt>
      <trkpt lat="44.67858" lon="6.63877">
        <ele>1087.905273</ele>
        <time>2010-08-16T09:58:12Z</time>
      </trkpt>
      <trkpt lat="44.67857" lon="6.63897">
        <ele>1089.806152</ele>
        <time>2010-08-16T09:58:21Z</time>
      </trkpt>
      <trkpt lat="44.67858" lon="6.63918">
        <ele>1091.63855</ele>
        <time>2010-08-16T09:58:30Z</time>
      </trkpt>
      <trkpt lat="44.67865" lon="6.63942">
        <ele>1094.077271</ele>
        <time>2010-08-16T09:58:41Z</time>
      </trkpt>
      <trkpt lat="44.67873" lon="6.6396">
        <ele>1096.891968</ele>
        <time>2010-08-16T09:58:52Z</time>
      </trkpt>
      <trkpt lat="44.67885" lon="6.63977">
        <ele>1100.741577</ele>
        <time>2010-08-16T09:59:03Z</time>
      </trkpt>
      <trkpt lat="44.67898" lon="6.6399">
        <ele>1104.587646</ele>
        <time>2010-08-16T09:59:14Z</time>
      </trkpt>
      <trkpt lat="44.67912" lon="6.63995">
        <ele>1108.231934</ele>
        <time>2010-08-16T09:59:23Z</time>
      </trkpt>
      <trkpt lat="44.67933" lon="6.64003">
        <ele>1114.846069</ele>
        <time>2010-08-16T09:59:41Z</time>
      </trkpt>
      <trkpt lat="44.67928" lon="6.64022">
        <ele>1114.526978</ele>
        <time>2010-08-16T09:59:50Z</time>
      </trkpt>
      <trkpt lat="44.6792" lon="6.64038">
        <ele>1112.934204</ele>
        <time>2010-08-16T09:59:59Z</time>
      </trkpt>
      <trkpt lat="44.6791" lon="6.64058">
        <ele>1109.823486</ele>
        <time>2010-08-16T10:00:10Z</time>
      </trkpt>
      <trkpt lat="44.67908" lon="6.64082">
        <ele>1109.171143</ele>
        <time>2010-08-16T10:00:21Z</time>
      </trkpt>
      <trkpt lat="44.67915" lon="6.64107">
        <ele>1110.942871</ele>
        <time>2010-08-16T10:00:33Z</time>
      </trkpt>
      <trkpt lat="44.67923" lon="6.64123">
        <ele>1113.572876</ele>
        <time>2010-08-16T10:00:42Z</time>
      </trkpt>
      <trkpt lat="44.6794" lon="6.64157">
        <ele>1118.832764</ele>
        <time>2010-08-16T10:00:59Z</time>
      </trkpt>
      <trkpt lat="44.67947" lon="6.64178">
        <ele>1120.292236</ele>
        <time>2010-08-16T10:01:08Z</time>
      </trkpt>
      <trkpt lat="44.67952" lon="6.642">
        <ele>1120.816528</ele>
        <time>2010-08-16T10:01:17Z</time>
      </trkpt>
      <trkpt lat="44.67958" lon="6.6422">
        <ele>1121.872803</ele>
        <time>2010-08-16T10:01:26Z</time>
      </trkpt>
      <trkpt lat="44.6797" lon="6.64233">
        <ele>1124.298706</ele>
        <time>2010-08-16T10:01:35Z</time>
      </trkpt>
      <trkpt lat="44.67983" lon="6.64242">
        <ele>1127.114136</ele>
        <time>2010-08-16T10:01:44Z</time>
      </trkpt>
      <trkpt lat="44.68002" lon="6.64253">
        <ele>1130.66748</ele>
        <time>2010-08-16T10:01:57Z</time>
      </trkpt>
      <trkpt lat="44.68027" lon="6.6427">
        <ele>1135.60498</ele>
        <time>2010-08-16T10:02:15Z</time>
      </trkpt>
      <trkpt lat="44.68037" lon="6.64285">
        <ele>1135.965088</ele>
        <time>2010-08-16T10:02:24Z</time>
      </trkpt>
      <trkpt lat="44.68047" lon="6.64303">
        <ele>1136.551758</ele>
        <time>2010-08-16T10:02:33Z</time>
      </trkpt>
      <trkpt lat="44.68055" lon="6.6432">
        <ele>1138.095337</ele>
        <time>2010-08-16T10:02:42Z</time>
      </trkpt>
      <trkpt lat="44.68062" lon="6.64338">
        <ele>1138.737793</ele>
        <time>2010-08-16T10:02:51Z</time>
      </trkpt>
      <trkpt lat="44.68072" lon="6.6436">
        <ele>1140.626465</ele>
        <time>2010-08-16T10:03:02Z</time>
      </trkpt>
      <trkpt lat="44.68077" lon="6.6438">
        <ele>1140.132568</ele>
        <time>2010-08-16T10:03:11Z</time>
      </trkpt>
      <trkpt lat="44.68082" lon="6.64398">
        <ele>1139.602661</ele>
        <time>2010-08-16T10:03:20Z</time>
      </trkpt>
      <trkpt lat="44.68085" lon="6.64418">
        <ele>1138.086426</ele>
        <time>2010-08-16T10:03:29Z</time>
      </trkpt>
      <trkpt lat="44.68093" lon="6.64435">
        <ele>1139.692871</ele>
        <time>2010-08-16T10:03:38Z</time>
      </trkpt>
      <trkpt lat="44.68102" lon="6.6442">
        <ele>1146.136597</ele>
        <time>2010-08-16T10:09:55Z</time>
      </trkpt>
      <trkpt lat="44.68093" lon="6.64388">
        <ele>1146.790771</ele>
        <time>2010-08-16T10:10:13Z</time>
      </trkpt>
      <trkpt lat="44.6809" lon="6.64368">
        <ele>1148.239014</ele>
        <time>2010-08-16T10:10:22Z</time>
      </trkpt>
      <trkpt lat="44.68088" lon="6.64343">
        <ele>1150.584595</ele>
        <time>2010-08-16T10:10:34Z</time>
      </trkpt>
      <trkpt lat="44.68088" lon="6.64322">
        <ele>1153.255981</ele>
        <time>2010-08-16T10:10:45Z</time>
      </trkpt>
      <trkpt lat="44.68088" lon="6.6428">
        <ele>1157.748291</ele>
        <time>2010-08-16T10:11:03Z</time>
      </trkpt>
      <trkpt lat="44.68087" lon="6.6426">
        <ele>1159.057495</ele>
        <time>2010-08-16T10:11:12Z</time>
      </trkpt>
      <trkpt lat="44.6808" lon="6.64242">
        <ele>1158.755371</ele>
        <time>2010-08-16T10:11:21Z</time>
      </trkpt>
      <trkpt lat="44.68078" lon="6.64222">
        <ele>1160.068237</ele>
        <time>2010-08-16T10:11:30Z</time>
      </trkpt>
      <trkpt lat="44.68092" lon="6.64225">
        <ele>1163.675781</ele>
        <time>2010-08-16T10:11:41Z</time>
      </trkpt>
      <trkpt lat="44.68098" lon="6.64245">
        <ele>1164.615234</ele>
        <time>2010-08-16T10:11:51Z</time>
      </trkpt>
      <trkpt lat="44.68103" lon="6.64265">
        <ele>1164.824219</ele>
        <time>2010-08-16T10:11:59Z</time>
      </trkpt>
      <trkpt lat="44.68108" lon="6.64283">
        <ele>1165.462524</ele>
        <time>2010-08-16T10:12:08Z</time>
      </trkpt>
      <trkpt lat="44.68113" lon="6.64303">
        <ele>1166.294434</ele>
        <time>2010-08-16T10:12:17Z</time>
      </trkpt>
      <trkpt lat="44.6812" lon="6.64323">
        <ele>1167.166138</ele>
        <time>2010-08-16T10:12:26Z</time>
      </trkpt>
      <trkpt lat="44.68128" lon="6.64347">
        <ele>1168.643921</ele>
        <time>2010-08-16T10:12:37Z</time>
      </trkpt>
      <trkpt lat="44.68137" lon="6.64373">
        <ele>1169.870972</ele>
        <time>2010-08-16T10:12:50Z</time>
      </trkpt>
      <trkpt lat="44.68148" lon="6.64387">
        <ele>1173.27002</ele>
        <time>2010-08-16T10:12:59Z</time>
      </trkpt>
      <trkpt lat="44.68163" lon="6.64395">
        <ele>1178.743652</ele>
        <time>2010-08-16T10:13:08Z</time>
      </trkpt>
      <trkpt lat="44.68177" lon="6.64403">
        <ele>1183.024536</ele>
        <time>2010-08-16T10:13:19Z</time>
      </trkpt>
      <trkpt lat="44.68188" lon="6.64413">
        <ele>1185.60376</ele>
        <time>2010-08-16T10:13:28Z</time>
      </trkpt>
      <trkpt lat="44.682" lon="6.64428">
        <ele>1186.971436</ele>
        <time>2010-08-16T10:13:39Z</time>
      </trkpt>
      <trkpt lat="44.6821" lon="6.64445">
        <ele>1186.568726</ele>
        <time>2010-08-16T10:13:50Z</time>
      </trkpt>
      <trkpt lat="44.68223" lon="6.6446">
        <ele>1187.604858</ele>
        <time>2010-08-16T10:14:02Z</time>
      </trkpt>
      <trkpt lat="44.68237" lon="6.6447">
        <ele>1190.720703</ele>
        <time>2010-08-16T10:14:13Z</time>
      </trkpt>
      <trkpt lat="44.68252" lon="6.64478">
        <ele>1195.16626</ele>
        <time>2010-08-16T10:14:24Z</time>
      </trkpt>
      <trkpt lat="44.68265" lon="6.64493">
        <ele>1198.516968</ele>
        <time>2010-08-16T10:14:35Z</time>
      </trkpt>
      <trkpt lat="44.68273" lon="6.64508">
        <ele>1201.4021</ele>
        <time>2010-08-16T10:14:45Z</time>
      </trkpt>
      <trkpt lat="44.68278" lon="6.64532">
        <ele>1200.776855</ele>
        <time>2010-08-16T10:14:55Z</time>
      </trkpt>
      <trkpt lat="44.68285" lon="6.64548">
        <ele>1202.719727</ele>
        <time>2010-08-16T10:15:04Z</time>
      </trkpt>
      <trkpt lat="44.68293" lon="6.6457">
        <ele>1204.988159</ele>
        <time>2010-08-16T10:15:15Z</time>
      </trkpt>
      <trkpt lat="44.68298" lon="6.64588">
        <ele>1205.368408</ele>
        <time>2010-08-16T10:15:24Z</time>
      </trkpt>
      <trkpt lat="44.68303" lon="6.64613">
        <ele>1204.299438</ele>
        <time>2010-08-16T10:15:37Z</time>
      </trkpt>
      <trkpt lat="44.6831" lon="6.64638">
        <ele>1204.696655</ele>
        <time>2010-08-16T10:19:55Z</time>
      </trkpt>
      <trkpt lat="44.68318" lon="6.64657">
        <ele>1208.396118</ele>
        <time>2010-08-16T10:20:06Z</time>
      </trkpt>
      <trkpt lat="44.68328" lon="6.64672">
        <ele>1213.426636</ele>
        <time>2010-08-16T10:20:15Z</time>
      </trkpt>
      <trkpt lat="44.68337" lon="6.64688">
        <ele>1216.71814</ele>
        <time>2010-08-16T10:20:24Z</time>
      </trkpt>
      <trkpt lat="44.68338" lon="6.64708">
        <ele>1216.151001</ele>
        <time>2010-08-16T10:20:33Z</time>
      </trkpt>
      <trkpt lat="44.6834" lon="6.6473">
        <ele>1217.837036</ele>
        <time>2010-08-16T10:20:45Z</time>
      </trkpt>
      <trkpt lat="44.6834" lon="6.6475">
        <ele>1218.428589</ele>
        <time>2010-08-16T10:20:53Z</time>
      </trkpt>
      <trkpt lat="44.6834" lon="6.64773">
        <ele>1219.596924</ele>
        <time>2010-08-16T10:21:02Z</time>
      </trkpt>
      <trkpt lat="44.68335" lon="6.64793">
        <ele>1217.533569</ele>
        <time>2010-08-16T10:21:11Z</time>
      </trkpt>
      <trkpt lat="44.68327" lon="6.64813">
        <ele>1213.459961</ele>
        <time>2010-08-16T10:21:20Z</time>
      </trkpt>
      <trkpt lat="44.68323" lon="6.64833">
        <ele>1213.765747</ele>
        <time>2010-08-16T10:21:28Z</time>
      </trkpt>
      <trkpt lat="44.68335" lon="6.64848">
        <ele>1223.434448</ele>
        <time>2010-08-16T10:21:34Z</time>
      </trkpt>
      <trkpt lat="44.68333" lon="6.64868">
        <ele>1225.553223</ele>
        <time>2010-08-16T10:21:41Z</time>
      </trkpt>
      <trkpt lat="44.68323" lon="6.64883">
        <ele>1223.08252</ele>
        <time>2010-08-16T10:21:48Z</time>
      </trkpt>
      <trkpt lat="44.68313" lon="6.649">
        <ele>1224.479614</ele>
        <time>2010-08-16T10:21:55Z</time>
      </trkpt>
      <trkpt lat="44.68305" lon="6.64915">
        <ele>1227.376709</ele>
        <time>2010-08-16T10:22:01Z</time>
      </trkpt>
      <trkpt lat="44.68295" lon="6.64938">
        <ele>1233.51416</ele>
        <time>2010-08-16T10:22:10Z</time>
      </trkpt>
      <trkpt lat="44.68278" lon="6.64955">
        <ele>1234.235718</ele>
        <time>2010-08-16T10:22:19Z</time>
      </trkpt>
      <trkpt lat="44.68262" lon="6.64972">
        <ele>1234.872314</ele>
        <time>2010-08-16T10:22:28Z</time>
      </trkpt>
      <trkpt lat="44.6825" lon="6.64983">
        <ele>1235.317993</ele>
        <time>2010-08-16T10:22:34Z</time>
      </trkpt>
      <trkpt lat="44.68238" lon="6.64995">
        <ele>1235.822754</ele>
        <time>2010-08-16T10:22:41Z</time>
      </trkpt>
      <trkpt lat="44.6822" lon="6.65015">
        <ele>1238.801147</ele>
        <time>2010-08-16T10:22:52Z</time>
      </trkpt>
      <trkpt lat="44.68205" lon="6.6503">
        <ele>1240.683228</ele>
        <time>2010-08-16T10:23:01Z</time>
      </trkpt>
      <trkpt lat="44.68195" lon="6.65043">
        <ele>1243.015381</ele>
        <time>2010-08-16T10:23:08Z</time>
      </trkpt>
      <trkpt lat="44.68182" lon="6.65058">
        <ele>1242.552979</ele>
        <time>2010-08-16T10:23:17Z</time>
      </trkpt>
      <trkpt lat="44.6817" lon="6.65075">
        <ele>1237.229492</ele>
        <time>2010-08-16T10:23:26Z</time>
      </trkpt>
      <trkpt lat="44.68173" lon="6.65097">
        <ele>1238.311523</ele>
        <time>2010-08-16T10:23:35Z</time>
      </trkpt>
      <trkpt lat="44.68182" lon="6.65115">
        <ele>1244.122437</ele>
        <time>2010-08-16T10:23:44Z</time>
      </trkpt>
      <trkpt lat="44.68193" lon="6.65132">
        <ele>1252.681274</ele>
        <time>2010-08-16T10:23:53Z</time>
      </trkpt>
      <trkpt lat="44.68205" lon="6.65148">
        <ele>1260.132935</ele>
        <time>2010-08-16T10:24:02Z</time>
      </trkpt>
      <trkpt lat="44.68203" lon="6.65168">
        <ele>1258.257446</ele>
        <time>2010-08-16T10:24:11Z</time>
      </trkpt>
      <trkpt lat="44.68195" lon="6.6519">
        <ele>1252.14856</ele>
        <time>2010-08-16T10:24:20Z</time>
      </trkpt>
      <trkpt lat="44.68182" lon="6.65202">
        <ele>1247.747437</ele>
        <time>2010-08-16T10:24:29Z</time>
      </trkpt>
      <trkpt lat="44.68172" lon="6.65218">
        <ele>1249.742432</ele>
        <time>2010-08-16T10:24:38Z</time>
      </trkpt>
      <trkpt lat="44.68158" lon="6.6523">
        <ele>1248.363647</ele>
        <time>2010-08-16T10:24:47Z</time>
      </trkpt>
      <trkpt lat="44.68148" lon="6.65245">
        <ele>1249.720947</ele>
        <time>2010-08-16T10:24:58Z</time>
      </trkpt>
      <trkpt lat="44.6814" lon="6.6526">
        <ele>1253.970825</ele>
        <time>2010-08-16T10:25:07Z</time>
      </trkpt>
      <trkpt lat="44.68128" lon="6.6527">
        <ele>1257.591064</ele>
        <time>2010-08-16T10:25:16Z</time>
      </trkpt>
      <trkpt lat="44.68115" lon="6.65278">
        <ele>1259.44751</ele>
        <time>2010-08-16T10:25:27Z</time>
      </trkpt>
      <trkpt lat="44.68102" lon="6.6529">
        <ele>1263.235107</ele>
        <time>2010-08-16T10:25:36Z</time>
      </trkpt>
      <trkpt lat="44.68088" lon="6.65302">
        <ele>1266.77356</ele>
        <time>2010-08-16T10:25:45Z</time>
      </trkpt>
      <trkpt lat="44.68073" lon="6.6531">
        <ele>1267.548096</ele>
        <time>2010-08-16T10:25:55Z</time>
      </trkpt>
      <trkpt lat="44.6806" lon="6.65315">
        <ele>1267.35083</ele>
        <time>2010-08-16T10:26:04Z</time>
      </trkpt>
      <trkpt lat="44.68047" lon="6.6532">
        <ele>1267.035767</ele>
        <time>2010-08-16T10:26:13Z</time>
      </trkpt>
      <trkpt lat="44.68035" lon="6.65332">
        <ele>1272.128662</ele>
        <time>2010-08-16T10:26:22Z</time>
      </trkpt>
      <trkpt lat="44.6802" lon="6.65342">
        <ele>1274.576782</ele>
        <time>2010-08-16T10:26:31Z</time>
      </trkpt>
      <trkpt lat="44.68005" lon="6.65348">
        <ele>1274.289795</ele>
        <time>2010-08-16T10:26:40Z</time>
      </trkpt>
      <trkpt lat="44.67992" lon="6.65355">
        <ele>1271.967529</ele>
        <time>2010-08-16T10:26:49Z</time>
      </trkpt>
      <trkpt lat="44.67982" lon="6.65368">
        <ele>1274.579102</ele>
        <time>2010-08-16T10:26:58Z</time>
      </trkpt>
      <trkpt lat="44.67977" lon="6.65387">
        <ele>1280.855591</ele>
        <time>2010-08-16T10:27:07Z</time>
      </trkpt>
      <trkpt lat="44.67973" lon="6.65408">
        <ele>1289.625122</ele>
        <time>2010-08-16T10:27:16Z</time>
      </trkpt>
      <trkpt lat="44.67968" lon="6.65427">
        <ele>1294.738525</ele>
        <time>2010-08-16T10:27:25Z</time>
      </trkpt>
      <trkpt lat="44.67958" lon="6.65443">
        <ele>1294.672363</ele>
        <time>2010-08-16T10:27:36Z</time>
      </trkpt>
      <trkpt lat="44.67945" lon="6.65452">
        <ele>1291.94751</ele>
        <time>2010-08-16T10:27:47Z</time>
      </trkpt>
      <trkpt lat="44.67932" lon="6.65457">
        <ele>1290.838013</ele>
        <time>2010-08-16T10:27:56Z</time>
      </trkpt>
      <trkpt lat="44.67918" lon="6.65463">
        <ele>1291.348999</ele>
        <time>2010-08-16T10:28:03Z</time>
      </trkpt>
      <trkpt lat="44.67905" lon="6.65475">
        <ele>1296.026733</ele>
        <time>2010-08-16T10:28:12Z</time>
      </trkpt>
      <trkpt lat="44.6789" lon="6.65482">
        <ele>1296.63855</ele>
        <time>2010-08-16T10:28:21Z</time>
      </trkpt>
      <trkpt lat="44.67877" lon="6.65488">
        <ele>1298.175659</ele>
        <time>2010-08-16T10:28:30Z</time>
      </trkpt>
      <trkpt lat="44.67863" lon="6.65493">
        <ele>1299.812012</ele>
        <time>2010-08-16T10:28:39Z</time>
      </trkpt>
      <trkpt lat="44.6785" lon="6.65498">
        <ele>1302.48645</ele>
        <time>2010-08-16T10:28:48Z</time>
      </trkpt>
      <trkpt lat="44.67837" lon="6.65503">
        <ele>1305.254028</ele>
        <time>2010-08-16T10:28:57Z</time>
      </trkpt>
      <trkpt lat="44.67822" lon="6.65508">
        <ele>1307.631226</ele>
        <time>2010-08-16T10:29:06Z</time>
      </trkpt>
      <trkpt lat="44.67807" lon="6.65513">
        <ele>1309.433105</ele>
        <time>2010-08-16T10:29:15Z</time>
      </trkpt>
      <trkpt lat="44.6779" lon="6.65513">
        <ele>1305.465088</ele>
        <time>2010-08-16T10:29:24Z</time>
      </trkpt>
      <trkpt lat="44.67775" lon="6.65512">
        <ele>1300.380127</ele>
        <time>2010-08-16T10:29:33Z</time>
      </trkpt>
      <trkpt lat="44.6776" lon="6.65518">
        <ele>1300.035278</ele>
        <time>2010-08-16T10:29:42Z</time>
      </trkpt>
      <trkpt lat="44.67745" lon="6.6553">
        <ele>1301.064941</ele>
        <time>2010-08-16T10:29:53Z</time>
      </trkpt>
      <trkpt lat="44.67735" lon="6.65543">
        <ele>1303.392578</ele>
        <time>2010-08-16T10:30:02Z</time>
      </trkpt>
      <trkpt lat="44.67728" lon="6.6556">
        <ele>1306.449463</ele>
        <time>2010-08-16T10:30:10Z</time>
      </trkpt>
      <trkpt lat="44.67727" lon="6.6558">
        <ele>1314.013672</ele>
        <time>2010-08-16T10:30:19Z</time>
      </trkpt>
      <trkpt lat="44.67725" lon="6.65603">
        <ele>1323.48291</ele>
        <time>2010-08-16T10:30:30Z</time>
      </trkpt>
      <trkpt lat="44.67718" lon="6.65623">
        <ele>1330.289429</ele>
        <time>2010-08-16T10:30:39Z</time>
      </trkpt>
      <trkpt lat="44.6771" lon="6.65642">
        <ele>1336.317871</ele>
        <time>2010-08-16T10:30:48Z</time>
      </trkpt>
      <trkpt lat="44.67697" lon="6.65653">
        <ele>1335.737671</ele>
        <time>2010-08-16T10:30:57Z</time>
      </trkpt>
      <trkpt lat="44.67682" lon="6.65657">
        <ele>1329.071899</ele>
        <time>2010-08-16T10:31:06Z</time>
      </trkpt>
      <trkpt lat="44.67667" lon="6.65653">
        <ele>1318.556885</ele>
        <time>2010-08-16T10:31:15Z</time>
      </trkpt>
      <trkpt lat="44.67652" lon="6.6565">
        <ele>1309.297485</ele>
        <time>2010-08-16T10:31:24Z</time>
      </trkpt>
      <trkpt lat="44.67638" lon="6.65657">
        <ele>1309.057739</ele>
        <time>2010-08-16T10:31:33Z</time>
      </trkpt>
      <trkpt lat="44.6763" lon="6.65675">
        <ele>1316.491821</ele>
        <time>2010-08-16T10:31:42Z</time>
      </trkpt>
      <trkpt lat="44.67622" lon="6.65697">
        <ele>1326.14502</ele>
        <time>2010-08-16T10:31:53Z</time>
      </trkpt>
      <trkpt lat="44.67608" lon="6.65703">
        <ele>1325.041504</ele>
        <time>2010-08-16T10:32:02Z</time>
      </trkpt>
      <trkpt lat="44.67597" lon="6.65718">
        <ele>1329.838867</ele>
        <time>2010-08-16T10:32:11Z</time>
      </trkpt>
      <trkpt lat="44.67583" lon="6.65725">
        <ele>1329.096313</ele>
        <time>2010-08-16T10:32:20Z</time>
      </trkpt>
      <trkpt lat="44.67567" lon="6.65725">
        <ele>1323.506958</ele>
        <time>2010-08-16T10:32:29Z</time>
      </trkpt>
      <trkpt lat="44.67552" lon="6.65727">
        <ele>1319.047607</ele>
        <time>2010-08-16T10:32:38Z</time>
      </trkpt>
      <trkpt lat="44.6754" lon="6.65737">
        <ele>1318.514771</ele>
        <time>2010-08-16T10:38:41Z</time>
      </trkpt>
      <trkpt lat="44.67537" lon="6.65758">
        <ele>1324.977905</ele>
        <time>2010-08-16T10:38:52Z</time>
      </trkpt>
      <trkpt lat="44.67538" lon="6.65778">
        <ele>1333.894653</ele>
        <time>2010-08-16T10:39:00Z</time>
      </trkpt>
      <trkpt lat="44.67542" lon="6.65798">
        <ele>1345.13208</ele>
        <time>2010-08-16T10:39:06Z</time>
      </trkpt>
      <trkpt lat="44.67535" lon="6.65818">
        <ele>1349.780029</ele>
        <time>2010-08-16T10:39:13Z</time>
      </trkpt>
      <trkpt lat="44.67523" lon="6.65835">
        <ele>1348.625366</ele>
        <time>2010-08-16T10:39:20Z</time>
      </trkpt>
      <trkpt lat="44.6752" lon="6.6586">
        <ele>1353.612915</ele>
        <time>2010-08-16T10:39:27Z</time>
      </trkpt>
      <trkpt lat="44.67505" lon="6.6587">
        <ele>1345.571899</ele>
        <time>2010-08-16T10:39:34Z</time>
      </trkpt>
      <trkpt lat="44.67487" lon="6.65873">
        <ele>1333.505859</ele>
        <time>2010-08-16T10:39:41Z</time>
      </trkpt>
      <trkpt lat="44.67473" lon="6.65885">
        <ele>1330.899048</ele>
        <time>2010-08-16T10:39:48Z</time>
      </trkpt>
      <trkpt lat="44.67477" lon="6.65905">
        <ele>1335.5177</ele>
        <time>2010-08-16T10:39:54Z</time>
      </trkpt>
      <trkpt lat="44.67483" lon="6.65928">
        <ele>1339.119507</ele>
        <time>2010-08-16T10:40:01Z</time>
      </trkpt>
      <trkpt lat="44.67483" lon="6.65948">
        <ele>1338.924683</ele>
        <time>2010-08-16T10:40:10Z</time>
      </trkpt>
      <trkpt lat="44.67478" lon="6.65968">
        <ele>1334.705078</ele>
        <time>2010-08-16T10:40:17Z</time>
      </trkpt>
      <trkpt lat="44.67477" lon="6.65992">
        <ele>1334.918091</ele>
        <time>2010-08-16T10:40:24Z</time>
      </trkpt>
      <trkpt lat="44.67477" lon="6.66018">
        <ele>1337.180176</ele>
        <time>2010-08-16T10:40:31Z</time>
      </trkpt>
      <trkpt lat="44.67482" lon="6.66038">
        <ele>1336.465576</ele>
        <time>2010-08-16T10:40:37Z</time>
      </trkpt>
      <trkpt lat="44.6749" lon="6.66055">
        <ele>1337.130859</ele>
        <time>2010-08-16T10:40:44Z</time>
      </trkpt>
      <trkpt lat="44.67505" lon="6.6607">
        <ele>1343.927856</ele>
        <time>2010-08-16T10:40:51Z</time>
      </trkpt>
      <trkpt lat="44.67518" lon="6.66087">
        <ele>1348.524902</ele>
        <time>2010-08-16T10:40:58Z</time>
      </trkpt>
      <trkpt lat="44.67523" lon="6.66112">
        <ele>1345.450928</ele>
        <time>2010-08-16T10:41:05Z</time>
      </trkpt>
      <trkpt lat="44.67525" lon="6.66135">
        <ele>1340.074219</ele>
        <time>2010-08-16T10:41:12Z</time>
      </trkpt>
      <trkpt lat="44.67532" lon="6.66152">
        <ele>1339.733154</ele>
        <time>2010-08-16T10:41:16Z</time>
      </trkpt>
      <trkpt lat="44.67542" lon="6.66165">
        <ele>1341.075562</ele>
        <time>2010-08-16T10:41:25Z</time>
      </trkpt>
      <trkpt lat="44.67557" lon="6.66163">
        <ele>1351.687866</ele>
        <time>2010-08-16T10:43:59Z</time>
      </trkpt>
      <trkpt lat="44.67575" lon="6.6618">
        <ele>1355.486938</ele>
        <time>2010-08-16T10:44:06Z</time>
      </trkpt>
      <trkpt lat="44.67587" lon="6.66192">
        <ele>1357.93396</ele>
        <time>2010-08-16T10:44:10Z</time>
      </trkpt>
      <trkpt lat="44.67593" lon="6.6622">
        <ele>1351.512695</ele>
        <time>2010-08-16T10:44:15Z</time>
      </trkpt>
      <trkpt lat="44.67582" lon="6.66237">
        <ele>1345.928589</ele>
        <time>2010-08-16T10:44:19Z</time>
      </trkpt>
      <trkpt lat="44.67573" lon="6.66258">
        <ele>1344.186401</ele>
        <time>2010-08-16T10:44:24Z</time>
      </trkpt>
      <trkpt lat="44.67577" lon="6.66283">
        <ele>1350.592285</ele>
        <time>2010-08-16T10:44:28Z</time>
      </trkpt>
      <trkpt lat="44.67575" lon="6.66313">
        <ele>1351.632324</ele>
        <time>2010-08-16T10:44:33Z</time>
      </trkpt>
      <trkpt lat="44.67578" lon="6.66338">
        <ele>1355.270752</ele>
        <time>2010-08-16T10:44:38Z</time>
      </trkpt>
      <trkpt lat="44.67577" lon="6.66367">
        <ele>1356.267822</ele>
        <time>2010-08-16T10:44:45Z</time>
      </trkpt>
      <trkpt lat="44.67572" lon="6.66385">
        <ele>1354.822754</ele>
        <time>2010-08-16T10:44:52Z</time>
      </trkpt>
      <trkpt lat="44.67568" lon="6.6641">
        <ele>1355.068359</ele>
        <time>2010-08-16T10:44:58Z</time>
      </trkpt>
      <trkpt lat="44.67562" lon="6.66433">
        <ele>1356.654175</ele>
        <time>2010-08-16T10:45:05Z</time>
      </trkpt>
      <trkpt lat="44.67553" lon="6.6645">
        <ele>1356.955811</ele>
        <time>2010-08-16T10:45:11Z</time>
      </trkpt>
      <trkpt lat="44.6754" lon="6.66467">
        <ele>1354.997192</ele>
        <time>2010-08-16T10:45:18Z</time>
      </trkpt>
      <trkpt lat="44.6753" lon="6.66483">
        <ele>1353.4646</ele>
        <time>2010-08-16T10:45:25Z</time>
      </trkpt>
      <trkpt lat="44.67522" lon="6.66507">
        <ele>1354.050171</ele>
        <time>2010-08-16T10:45:31Z</time>
      </trkpt>
      <trkpt lat="44.67522" lon="6.6653">
        <ele>1358.125</ele>
        <time>2010-08-16T10:45:38Z</time>
      </trkpt>
      <trkpt lat="44.67527" lon="6.66553">
        <ele>1360.374268</ele>
        <time>2010-08-16T10:45:45Z</time>
      </trkpt>
      <trkpt lat="44.67533" lon="6.66572">
        <ele>1362.778564</ele>
        <time>2010-08-16T10:45:52Z</time>
      </trkpt>
      <trkpt lat="44.6754" lon="6.66595">
        <ele>1365.00293</ele>
        <time>2010-08-16T10:45:58Z</time>
      </trkpt>
      <trkpt lat="44.67547" lon="6.66618">
        <ele>1365.868164</ele>
        <time>2010-08-16T10:46:05Z</time>
      </trkpt>
      <trkpt lat="44.67553" lon="6.6664">
        <ele>1366.364258</ele>
        <time>2010-08-16T10:46:12Z</time>
      </trkpt>
      <trkpt lat="44.67563" lon="6.66662">
        <ele>1367.719971</ele>
        <time>2010-08-16T10:46:19Z</time>
      </trkpt>
      <trkpt lat="44.67573" lon="6.66677">
        <ele>1369.700684</ele>
        <time>2010-08-16T10:46:25Z</time>
      </trkpt>
      <trkpt lat="44.67583" lon="6.66695">
        <ele>1371.452637</ele>
        <time>2010-08-16T10:46:35Z</time>
      </trkpt>
      <trkpt lat="44.6759" lon="6.66713">
        <ele>1372.290894</ele>
        <time>2010-08-16T10:46:41Z</time>
      </trkpt>
      <trkpt lat="44.67593" lon="6.66737">
        <ele>1372.64856</ele>
        <time>2010-08-16T10:46:48Z</time>
      </trkpt>
      <trkpt lat="44.67597" lon="6.66767">
        <ele>1373.650757</ele>
        <time>2010-08-16T10:46:57Z</time>
      </trkpt>
      <trkpt lat="44.676" lon="6.66805">
        <ele>1374.481323</ele>
        <time>2010-08-16T10:47:09Z</time>
      </trkpt>
      <trkpt lat="44.67603" lon="6.66828">
        <ele>1375.059692</ele>
        <time>2010-08-16T10:47:15Z</time>
      </trkpt>
      <trkpt lat="44.67608" lon="6.66847">
        <ele>1376.045776</ele>
        <time>2010-08-16T10:47:20Z</time>
      </trkpt>
      <trkpt lat="44.67618" lon="6.66863">
        <ele>1378.331055</ele>
        <time>2010-08-16T10:47:26Z</time>
      </trkpt>
      <trkpt lat="44.67632" lon="6.6688">
        <ele>1381.245483</ele>
        <time>2010-08-16T10:47:33Z</time>
      </trkpt>
      <trkpt lat="44.6764" lon="6.66897">
        <ele>1382.746094</ele>
        <time>2010-08-16T10:47:39Z</time>
      </trkpt>
      <trkpt lat="44.67647" lon="6.66913">
        <ele>1383.669556</ele>
        <time>2010-08-16T10:47:44Z</time>
      </trkpt>
      <trkpt lat="44.67652" lon="6.66935">
        <ele>1384.128662</ele>
        <time>2010-08-16T10:47:51Z</time>
      </trkpt>
      <trkpt lat="44.67658" lon="6.66952">
        <ele>1384.781128</ele>
        <time>2010-08-16T10:47:57Z</time>
      </trkpt>
      <trkpt lat="44.67647" lon="6.66968">
        <ele>1383.005737</ele>
        <time>2010-08-16T10:49:26Z</time>
      </trkpt>
      <trkpt lat="44.67623" lon="6.66987">
        <ele>1380.247314</ele>
        <time>2010-08-16T10:49:30Z</time>
      </trkpt>
      <trkpt lat="44.67602" lon="6.66998">
        <ele>1377.178711</ele>
        <time>2010-08-16T10:49:35Z</time>
      </trkpt>
      <trkpt lat="44.67567" lon="6.6701">
        <ele>1371.850464</ele>
        <time>2010-08-16T10:49:41Z</time>
      </trkpt>
      <trkpt lat="44.67568" lon="6.66982">
        <ele>1371.349976</ele>
        <time>2010-08-16T10:49:47Z</time>
      </trkpt>
      <trkpt lat="44.67555" lon="6.66973">
        <ele>1368.13855</ele>
        <time>2010-08-16T10:49:51Z</time>
      </trkpt>
      <trkpt lat="44.67537" lon="6.66983">
        <ele>1364.628418</ele>
        <time>2010-08-16T10:49:56Z</time>
      </trkpt>
      <trkpt lat="44.67525" lon="6.67002">
        <ele>1362.314453</ele>
        <time>2010-08-16T10:50:01Z</time>
      </trkpt>
      <trkpt lat="44.6752" lon="6.67025">
        <ele>1361.751099</ele>
        <time>2010-08-16T10:51:18Z</time>
      </trkpt>
      <trkpt lat="44.67522" lon="6.6705">
        <ele>1363.475952</ele>
        <time>2010-08-16T10:51:23Z</time>
      </trkpt>
      <trkpt lat="44.6752" lon="6.67025">
        <ele>1361.751099</ele>
        <time>2010-08-16T10:52:13Z</time>
      </trkpt>
      <trkpt lat="44.67527" lon="6.66998">
        <ele>1362.735718</ele>
        <time>2010-08-16T10:52:24Z</time>
      </trkpt>
      <trkpt lat="44.67537" lon="6.66985">
        <ele>1364.715332</ele>
        <time>2010-08-16T10:52:31Z</time>
      </trkpt>
      <trkpt lat="44.6755" lon="6.66972">
        <ele>1366.973267</ele>
        <time>2010-08-16T10:52:40Z</time>
      </trkpt>
      <trkpt lat="44.67568" lon="6.66977">
        <ele>1371.199219</ele>
        <time>2010-08-16T10:52:49Z</time>
      </trkpt>
      <trkpt lat="44.67578" lon="6.6699">
        <ele>1373.563721</ele>
        <time>2010-08-16T10:52:56Z</time>
      </trkpt>
      <trkpt lat="44.67593" lon="6.67">
        <ele>1375.971924</ele>
        <time>2010-08-16T10:53:03Z</time>
      </trkpt>
      <trkpt lat="44.67608" lon="6.66995">
        <ele>1378.133301</ele>
        <time>2010-08-16T10:53:09Z</time>
      </trkpt>
      <trkpt lat="44.67627" lon="6.66983">
        <ele>1380.602783</ele>
        <time>2010-08-16T10:53:16Z</time>
      </trkpt>
      <trkpt lat="44.67642" lon="6.6697">
        <ele>1382.379883</ele>
        <time>2010-08-16T10:53:22Z</time>
      </trkpt>
      <trkpt lat="44.67657" lon="6.66955">
        <ele>1384.492798</ele>
        <time>2010-08-16T10:53:29Z</time>
      </trkpt>
      <trkpt lat="44.67672" lon="6.66965">
        <ele>1386.645996</ele>
        <time>2010-08-16T10:53:36Z</time>
      </trkpt>
      <trkpt lat="44.67682" lon="6.66983">
        <ele>1388.167114</ele>
        <time>2010-08-16T10:53:43Z</time>
      </trkpt>
      <trkpt lat="44.67687" lon="6.67003">
        <ele>1388.968506</ele>
        <time>2010-08-16T10:53:47Z</time>
      </trkpt>
      <trkpt lat="44.67695" lon="6.67022">
        <ele>1390.28894</ele>
        <time>2010-08-16T10:53:52Z</time>
      </trkpt>
      <trkpt lat="44.67703" lon="6.67048">
        <ele>1391.205078</ele>
        <time>2010-08-16T10:53:59Z</time>
      </trkpt>
      <trkpt lat="44.67708" lon="6.67072">
        <ele>1391.848022</ele>
        <time>2010-08-16T10:54:05Z</time>
      </trkpt>
      <trkpt lat="44.67713" lon="6.671">
        <ele>1393.406616</ele>
        <time>2010-08-16T10:54:12Z</time>
      </trkpt>
      <trkpt lat="44.6772" lon="6.67123">
        <ele>1394.999512</ele>
        <time>2010-08-16T10:54:19Z</time>
      </trkpt>
      <trkpt lat="44.67723" lon="6.67147">
        <ele>1395.101074</ele>
        <time>2010-08-16T10:54:25Z</time>
      </trkpt>
      <trkpt lat="44.67722" lon="6.6717">
        <ele>1393.712036</ele>
        <time>2010-08-16T10:54:32Z</time>
      </trkpt>
      <trkpt lat="44.67718" lon="6.67202">
        <ele>1392.43103</ele>
        <time>2010-08-16T10:54:42Z</time>
      </trkpt>
      <trkpt lat="44.67718" lon="6.67228">
        <ele>1392.265137</ele>
        <time>2010-08-16T10:54:48Z</time>
      </trkpt>
      <trkpt lat="44.67717" lon="6.67255">
        <ele>1392.069458</ele>
        <time>2010-08-16T10:54:55Z</time>
      </trkpt>
      <trkpt lat="44.67708" lon="6.67298">
        <ele>1391.035889</ele>
        <time>2010-08-16T10:55:06Z</time>
      </trkpt>
      <trkpt lat="44.67705" lon="6.67323">
        <ele>1391.690674</ele>
        <time>2010-08-16T10:55:13Z</time>
      </trkpt>
      <trkpt lat="44.67698" lon="6.67343">
        <ele>1390.728516</ele>
        <time>2010-08-16T10:55:21Z</time>
      </trkpt>
      <trkpt lat="44.67692" lon="6.6736">
        <ele>1389.608398</ele>
        <time>2010-08-16T10:55:28Z</time>
      </trkpt>
      <trkpt lat="44.67692" lon="6.67385">
        <ele>1388.615479</ele>
        <time>2010-08-16T10:55:37Z</time>
      </trkpt>
      <trkpt lat="44.67697" lon="6.67403">
        <ele>1389.379761</ele>
        <time>2010-08-16T10:55:44Z</time>
      </trkpt>
      <trkpt lat="44.67708" lon="6.67422">
        <ele>1393.501831</ele>
        <time>2010-08-16T10:55:53Z</time>
      </trkpt>
      <trkpt lat="44.67718" lon="6.67437">
        <ele>1396.416626</ele>
        <time>2010-08-16T10:56:02Z</time>
      </trkpt>
      <trkpt lat="44.67727" lon="6.67453">
        <ele>1397.500488</ele>
        <time>2010-08-16T10:56:08Z</time>
      </trkpt>
      <trkpt lat="44.67732" lon="6.6748">
        <ele>1395.471436</ele>
        <time>2010-08-16T10:56:18Z</time>
      </trkpt>
      <trkpt lat="44.67742" lon="6.67497">
        <ele>1397.880249</ele>
        <time>2010-08-16T10:56:26Z</time>
      </trkpt>
      <trkpt lat="44.67757" lon="6.67512">
        <ele>1402.917114</ele>
        <time>2010-08-16T10:56:35Z</time>
      </trkpt>
      <trkpt lat="44.67773" lon="6.6753">
        <ele>1405.968872</ele>
        <time>2010-08-16T10:56:47Z</time>
      </trkpt>
      <trkpt lat="44.67788" lon="6.67542">
        <ele>1408.977051</ele>
        <time>2010-08-16T10:57:19Z</time>
      </trkpt>
      <trkpt lat="44.67803" lon="6.67552">
        <ele>1412.131958</ele>
        <time>2010-08-16T10:57:28Z</time>
      </trkpt>
      <trkpt lat="44.67817" lon="6.67558">
        <ele>1415.525635</ele>
        <time>2010-08-16T10:57:37Z</time>
      </trkpt>
      <trkpt lat="44.6783" lon="6.67563">
        <ele>1419.38269</ele>
        <time>2010-08-16T10:57:44Z</time>
      </trkpt>
      <trkpt lat="44.67845" lon="6.67575">
        <ele>1421.803101</ele>
        <time>2010-08-16T10:57:52Z</time>
      </trkpt>
      <trkpt lat="44.67855" lon="6.67592">
        <ele>1420.256592</ele>
        <time>2010-08-16T10:57:59Z</time>
      </trkpt>
      <trkpt lat="44.67882" lon="6.67633">
        <ele>1419.065796</ele>
        <time>2010-08-16T10:58:16Z</time>
      </trkpt>
      <trkpt lat="44.67893" lon="6.6765">
        <ele>1421.239136</ele>
        <time>2010-08-16T10:58:23Z</time>
      </trkpt>
      <trkpt lat="44.67905" lon="6.67667">
        <ele>1422.865845</ele>
        <time>2010-08-16T10:58:30Z</time>
      </trkpt>
      <trkpt lat="44.67913" lon="6.67683">
        <ele>1422.590576</ele>
        <time>2010-08-16T10:58:36Z</time>
      </trkpt>
      <trkpt lat="44.6792" lon="6.67703">
        <ele>1421.094482</ele>
        <time>2010-08-16T10:58:43Z</time>
      </trkpt>
      <trkpt lat="44.67925" lon="6.67725">
        <ele>1420.088989</ele>
        <time>2010-08-16T10:58:50Z</time>
      </trkpt>
      <trkpt lat="44.67928" lon="6.67753">
        <ele>1416.948364</ele>
        <time>2010-08-16T10:58:59Z</time>
      </trkpt>
      <trkpt lat="44.67935" lon="6.6777">
        <ele>1417.903442</ele>
        <time>2010-08-16T10:59:05Z</time>
      </trkpt>
      <trkpt lat="44.67943" lon="6.67792">
        <ele>1419.856445</ele>
        <time>2010-08-16T10:59:14Z</time>
      </trkpt>
      <trkpt lat="44.6795" lon="6.67808">
        <ele>1421.557861</ele>
        <time>2010-08-16T11:00:48Z</time>
      </trkpt>
      <trkpt lat="44.67958" lon="6.67823">
        <ele>1424.736938</ele>
        <time>2010-08-16T11:00:57Z</time>
      </trkpt>
      <trkpt lat="44.67968" lon="6.6784">
        <ele>1428.503052</ele>
        <time>2010-08-16T11:01:07Z</time>
      </trkpt>
      <trkpt lat="44.67977" lon="6.67855">
        <ele>1430.858154</ele>
        <time>2010-08-16T11:01:15Z</time>
      </trkpt>
      <trkpt lat="44.67987" lon="6.67868">
        <ele>1433.478027</ele>
        <time>2010-08-16T11:01:25Z</time>
      </trkpt>
      <trkpt lat="44.67997" lon="6.67885">
        <ele>1434.793945</ele>
        <time>2010-08-16T11:01:37Z</time>
      </trkpt>
      <trkpt lat="44.68005" lon="6.679">
        <ele>1435.550415</ele>
        <time>2010-08-16T11:01:48Z</time>
      </trkpt>
      <trkpt lat="44.68015" lon="6.67915">
        <ele>1436.637451</ele>
        <time>2010-08-16T11:02:00Z</time>
      </trkpt>
      <trkpt lat="44.68027" lon="6.67925">
        <ele>1438.337891</ele>
        <time>2010-08-16T11:02:13Z</time>
      </trkpt>
      <trkpt lat="44.68038" lon="6.6794">
        <ele>1438.198242</ele>
        <time>2010-08-16T11:02:26Z</time>
      </trkpt>
      <trkpt lat="44.6805" lon="6.67952">
        <ele>1438.517822</ele>
        <time>2010-08-16T11:02:38Z</time>
      </trkpt>
      <trkpt lat="44.68063" lon="6.6796">
        <ele>1439.865967</ele>
        <time>2010-08-16T11:02:49Z</time>
      </trkpt>
      <trkpt lat="44.6808" lon="6.67957">
        <ele>1445.392822</ele>
        <time>2010-08-16T11:03:02Z</time>
      </trkpt>
      <trkpt lat="44.68095" lon="6.67962">
        <ele>1447.856812</ele>
        <time>2010-08-16T11:03:14Z</time>
      </trkpt>
      <trkpt lat="44.68102" lon="6.67985">
        <ele>1444.071411</ele>
        <time>2010-08-16T11:03:23Z</time>
      </trkpt>
      <trkpt lat="44.68107" lon="6.68005">
        <ele>1442.226074</ele>
        <time>2010-08-16T11:03:33Z</time>
      </trkpt>
      <trkpt lat="44.68112" lon="6.68025">
        <ele>1441.818359</ele>
        <time>2010-08-16T11:08:11Z</time>
      </trkpt>
      <trkpt lat="44.68113" lon="6.6805">
        <ele>1440.806274</ele>
        <time>2010-08-16T11:08:23Z</time>
      </trkpt>
      <trkpt lat="44.68113" lon="6.68078">
        <ele>1438.601196</ele>
        <time>2010-08-16T11:08:41Z</time>
      </trkpt>
      <trkpt lat="44.68115" lon="6.681">
        <ele>1437.860962</ele>
        <time>2010-08-16T11:08:47Z</time>
      </trkpt>
      <trkpt lat="44.68113" lon="6.68127">
        <ele>1435.215698</ele>
        <time>2010-08-16T11:08:54Z</time>
      </trkpt>
      <trkpt lat="44.68107" lon="6.68177">
        <ele>1429.992676</ele>
        <time>2010-08-16T11:09:05Z</time>
      </trkpt>
      <trkpt lat="44.68103" lon="6.682">
        <ele>1428.06604</ele>
        <time>2010-08-16T11:09:11Z</time>
      </trkpt>
      <trkpt lat="44.68097" lon="6.68232">
        <ele>1425.455688</ele>
        <time>2010-08-16T11:09:16Z</time>
      </trkpt>
      <trkpt lat="44.68082" lon="6.68258">
        <ele>1420.212646</ele>
        <time>2010-08-16T11:09:20Z</time>
      </trkpt>
      <trkpt lat="44.68065" lon="6.68278">
        <ele>1413.675781</ele>
        <time>2010-08-16T11:09:25Z</time>
      </trkpt>
      <trkpt lat="44.6805" lon="6.683">
        <ele>1405.285645</ele>
        <time>2010-08-16T11:09:33Z</time>
      </trkpt>
      <trkpt lat="44.6804" lon="6.68318">
        <ele>1398.664185</ele>
        <time>2010-08-16T11:09:40Z</time>
      </trkpt>
      <trkpt lat="44.6804" lon="6.68345">
        <ele>1396.552612</ele>
        <time>2010-08-16T11:09:49Z</time>
      </trkpt>
      <trkpt lat="44.68032" lon="6.6836">
        <ele>1391.307129</ele>
        <time>2010-08-16T11:11:35Z</time>
      </trkpt>
      <trkpt lat="44.68025" lon="6.68377">
        <ele>1386.237061</ele>
        <time>2010-08-16T11:11:40Z</time>
      </trkpt>
      <trkpt lat="44.68017" lon="6.68408">
        <ele>1378.833862</ele>
        <time>2010-08-16T11:11:51Z</time>
      </trkpt>
      <trkpt lat="44.6801" lon="6.68433">
        <ele>1374.291016</ele>
        <time>2010-08-16T11:12:00Z</time>
      </trkpt>
      <trkpt lat="44.68005" lon="6.68457">
        <ele>1370.570923</ele>
        <time>2010-08-16T11:12:08Z</time>
      </trkpt>
      <trkpt lat="44.67998" lon="6.6848">
        <ele>1367.102173</ele>
        <time>2010-08-16T11:12:17Z</time>
      </trkpt>
      <trkpt lat="44.67993" lon="6.68507">
        <ele>1365.581909</ele>
        <time>2010-08-16T11:12:28Z</time>
      </trkpt>
      <trkpt lat="44.67985" lon="6.6849">
        <ele>1357.353882</ele>
        <time>2010-08-16T11:12:48Z</time>
      </trkpt>
      <trkpt lat="44.67978" lon="6.68472">
        <ele>1350.619629</ele>
        <time>2010-08-16T11:14:22Z</time>
      </trkpt>
      <trkpt lat="44.67973" lon="6.68448">
        <ele>1346.670166</ele>
        <time>2010-08-16T11:14:28Z</time>
      </trkpt>
      <trkpt lat="44.67967" lon="6.68467">
        <ele>1341.197144</ele>
        <time>2010-08-16T11:14:50Z</time>
      </trkpt>
      <trkpt lat="44.67962" lon="6.68487">
        <ele>1338.655518</ele>
        <time>2010-08-16T11:15:09Z</time>
      </trkpt>
      <trkpt lat="44.67957" lon="6.68508">
        <ele>1336.085083</ele>
        <time>2010-08-16T11:15:18Z</time>
      </trkpt>
      <trkpt lat="44.6795" lon="6.68525">
        <ele>1332.58606</ele>
        <time>2010-08-16T11:15:25Z</time>
      </trkpt>
      <trkpt lat="44.67942" lon="6.68543">
        <ele>1330.348877</ele>
        <time>2010-08-16T11:15:34Z</time>
      </trkpt>
      <trkpt lat="44.6793" lon="6.68558">
        <ele>1324.11084</ele>
        <time>2010-08-16T11:15:43Z</time>
      </trkpt>
      <trkpt lat="44.67917" lon="6.68573">
        <ele>1316.098755</ele>
        <time>2010-08-16T11:15:54Z</time>
      </trkpt>
      <trkpt lat="44.67903" lon="6.68587">
        <ele>1308.715698</ele>
        <time>2010-08-16T11:16:03Z</time>
      </trkpt>
      <trkpt lat="44.67893" lon="6.68568">
        <ele>1298.215942</ele>
        <time>2010-08-16T11:17:26Z</time>
      </trkpt>
      <trkpt lat="44.679" lon="6.68545">
        <ele>1299.351685</ele>
        <time>2010-08-16T11:17:37Z</time>
      </trkpt>
      <trkpt lat="44.679" lon="6.68525">
        <ele>1296.209473</ele>
        <time>2010-08-16T11:17:45Z</time>
      </trkpt>
      <trkpt lat="44.67885" lon="6.6853">
        <ele>1286.853271</ele>
        <time>2010-08-16T11:18:05Z</time>
      </trkpt>
      <trkpt lat="44.67868" lon="6.68545">
        <ele>1278.441772</ele>
        <time>2010-08-16T11:18:17Z</time>
      </trkpt>
      <trkpt lat="44.67857" lon="6.6856">
        <ele>1274.645508</ele>
        <time>2010-08-16T11:18:19Z</time>
      </trkpt>
      <trkpt lat="44.67848" lon="6.68577">
        <ele>1273.228882</ele>
        <time>2010-08-16T11:18:23Z</time>
      </trkpt>
      <trkpt lat="44.67837" lon="6.68587">
        <ele>1268.837036</ele>
        <time>2010-08-16T11:22:00Z</time>
      </trkpt>
      <trkpt lat="44.67815" lon="6.68622">
        <ele>1264.72522</ele>
        <time>2010-08-16T11:22:13Z</time>
      </trkpt>
      <trkpt lat="44.67805" lon="6.68637">
        <ele>1263.749634</ele>
        <time>2010-08-16T11:22:18Z</time>
      </trkpt>
      <trkpt lat="44.67797" lon="6.68652">
        <ele>1260.608154</ele>
        <time>2010-08-16T11:22:22Z</time>
      </trkpt>
      <trkpt lat="44.67787" lon="6.68672">
        <ele>1257.051025</ele>
        <time>2010-08-16T11:22:31Z</time>
      </trkpt>
      <trkpt lat="44.6778" lon="6.6869">
        <ele>1254.620117</ele>
        <time>2010-08-16T11:22:42Z</time>
      </trkpt>
      <trkpt lat="44.6779" lon="6.6871">
        <ele>1251.495728</ele>
        <time>2010-08-16T11:23:00Z</time>
      </trkpt>
      <trkpt lat="44.678" lon="6.68723">
        <ele>1248.963745</ele>
        <time>2010-08-16T11:23:29Z</time>
      </trkpt>
      <trkpt lat="44.67805" lon="6.68745">
        <ele>1242.620117</ele>
        <time>2010-08-16T11:23:40Z</time>
      </trkpt>
      <trkpt lat="44.67817" lon="6.68778">
        <ele>1233.307495</ele>
        <time>2010-08-16T11:23:58Z</time>
      </trkpt>
      <trkpt lat="44.67825" lon="6.68795">
        <ele>1230.54187</ele>
        <time>2010-08-16T11:24:07Z</time>
      </trkpt>
      <trkpt lat="44.67835" lon="6.68815">
        <ele>1227.704224</ele>
        <time>2010-08-16T11:24:52Z</time>
      </trkpt>
      <trkpt lat="44.67845" lon="6.68832">
        <ele>1225.376709</ele>
        <time>2010-08-16T11:25:01Z</time>
      </trkpt>
      <trkpt lat="44.67853" lon="6.68848">
        <ele>1222.112061</ele>
        <time>2010-08-16T11:25:08Z</time>
      </trkpt>
      <trkpt lat="44.67877" lon="6.68893">
        <ele>1215.006836</ele>
        <time>2010-08-16T11:25:21Z</time>
      </trkpt>
      <trkpt lat="44.67885" lon="6.68912">
        <ele>1213.974243</ele>
        <time>2010-08-16T11:25:27Z</time>
      </trkpt>
      <trkpt lat="44.6787" lon="6.6891">
        <ele>1204.992798</ele>
        <time>2010-08-16T11:25:47Z</time>
      </trkpt>
      <trkpt lat="44.67852" lon="6.68903">
        <ele>1196.699463</ele>
        <time>2010-08-16T11:25:56Z</time>
      </trkpt>
      <trkpt lat="44.67835" lon="6.68895">
        <ele>1190.916382</ele>
        <time>2010-08-16T11:26:07Z</time>
      </trkpt>
      <trkpt lat="44.6782" lon="6.6889">
        <ele>1184.767944</ele>
        <time>2010-08-16T11:26:16Z</time>
      </trkpt>
      <trkpt lat="44.67805" lon="6.68885">
        <ele>1181.094482</ele>
        <time>2010-08-16T11:26:24Z</time>
      </trkpt>
      <trkpt lat="44.67788" lon="6.68882">
        <ele>1176.71106</ele>
        <time>2010-08-16T11:26:33Z</time>
      </trkpt>
      <trkpt lat="44.67775" lon="6.68877">
        <ele>1174.114014</ele>
        <time>2010-08-16T11:26:40Z</time>
      </trkpt>
      <trkpt lat="44.67762" lon="6.68873">
        <ele>1172.098022</ele>
        <time>2010-08-16T11:26:49Z</time>
      </trkpt>
      <trkpt lat="44.67747" lon="6.68872">
        <ele>1169.435913</ele>
        <time>2010-08-16T11:27:16Z</time>
      </trkpt>
      <trkpt lat="44.67742" lon="6.6889">
        <ele>1161.199951</ele>
        <time>2010-08-16T11:27:29Z</time>
      </trkpt>
      <trkpt lat="44.67757" lon="6.68903">
        <ele>1159.138794</ele>
        <time>2010-08-16T11:27:36Z</time>
      </trkpt>
      <trkpt lat="44.67765" lon="6.68918">
        <ele>1155.040039</ele>
        <time>2010-08-16T11:27:42Z</time>
      </trkpt>
      <trkpt lat="44.67772" lon="6.68937">
        <ele>1149.523193</ele>
        <time>2010-08-16T11:27:51Z</time>
      </trkpt>
      <trkpt lat="44.6778" lon="6.68953">
        <ele>1145.832031</ele>
        <time>2010-08-16T11:28:00Z</time>
      </trkpt>
      <trkpt lat="44.67788" lon="6.68968">
        <ele>1143.776733</ele>
        <time>2010-08-16T11:28:09Z</time>
      </trkpt>
      <trkpt lat="44.67793" lon="6.6899">
        <ele>1138.955811</ele>
        <time>2010-08-16T11:28:17Z</time>
      </trkpt>
      <trkpt lat="44.67793" lon="6.69013">
        <ele>1132.1427</ele>
        <time>2010-08-16T11:28:26Z</time>
      </trkpt>
      <trkpt lat="44.67795" lon="6.69035">
        <ele>1127.051636</ele>
        <time>2010-08-16T11:28:31Z</time>
      </trkpt>
      <trkpt lat="44.678" lon="6.69058">
        <ele>1122.811523</ele>
        <time>2010-08-16T11:28:35Z</time>
      </trkpt>
      <trkpt lat="44.67805" lon="6.69083">
        <ele>1118.037842</ele>
        <time>2010-08-16T11:28:40Z</time>
      </trkpt>
      <trkpt lat="44.67812" lon="6.69102">
        <ele>1116.003296</ele>
        <time>2010-08-16T11:28:44Z</time>
      </trkpt>
      <trkpt lat="44.6782" lon="6.69123">
        <ele>1114.263916</ele>
        <time>2010-08-16T11:29:15Z</time>
      </trkpt>
      <trkpt lat="44.67828" lon="6.6914">
        <ele>1113.641602</ele>
        <time>2010-08-16T11:29:22Z</time>
      </trkpt>
      <trkpt lat="44.67825" lon="6.69167">
        <ele>1105.890137</ele>
        <time>2010-08-16T11:29:28Z</time>
      </trkpt>
      <trkpt lat="44.67822" lon="6.69193">
        <ele>1098.379028</ele>
        <time>2010-08-16T11:29:33Z</time>
      </trkpt>
      <trkpt lat="44.67822" lon="6.69213">
        <ele>1095.146851</ele>
        <time>2010-08-16T11:29:37Z</time>
      </trkpt>
      <trkpt lat="44.67838" lon="6.69227">
        <ele>1102.401733</ele>
        <time>2010-08-16T11:29:44Z</time>
      </trkpt>
      <trkpt lat="44.6784" lon="6.69248">
        <ele>1101.587524</ele>
        <time>2010-08-16T11:29:55Z</time>
      </trkpt>
      <trkpt lat="44.6783" lon="6.69273">
        <ele>1094.612671</ele>
        <time>2010-08-16T11:30:01Z</time>
      </trkpt>
      <trkpt lat="44.6782" lon="6.69293">
        <ele>1086.880493</ele>
        <time>2010-08-16T11:30:06Z</time>
      </trkpt>
      <trkpt lat="44.67815" lon="6.69313">
        <ele>1081.220581</ele>
        <time>2010-08-16T11:30:17Z</time>
      </trkpt>
      <trkpt lat="44.6781" lon="6.69332">
        <ele>1075.114136</ele>
        <time>2010-08-16T11:32:46Z</time>
      </trkpt>
      <trkpt lat="44.67815" lon="6.69353">
        <ele>1070.588989</ele>
        <time>2010-08-16T11:32:53Z</time>
      </trkpt>
      <trkpt lat="44.67825" lon="6.69367">
        <ele>1072.628906</ele>
        <time>2010-08-16T11:33:00Z</time>
      </trkpt>
      <trkpt lat="44.6784" lon="6.69372">
        <ele>1081.234009</ele>
        <time>2010-08-16T11:33:06Z</time>
      </trkpt>
      <trkpt lat="44.6785" lon="6.6939">
        <ele>1081.532837</ele>
        <time>2010-08-16T11:33:15Z</time>
      </trkpt>
      <trkpt lat="44.67857" lon="6.6941">
        <ele>1077.960327</ele>
        <time>2010-08-16T11:33:26Z</time>
      </trkpt>
      <trkpt lat="44.67862" lon="6.69433">
        <ele>1069.802979</ele>
        <time>2010-08-16T11:33:37Z</time>
      </trkpt>
      <trkpt lat="44.67858" lon="6.69453">
        <ele>1057.734009</ele>
        <time>2010-08-16T11:34:13Z</time>
      </trkpt>
      <trkpt lat="44.67873" lon="6.69487">
        <ele>1053.05603</ele>
        <time>2010-08-16T11:34:40Z</time>
      </trkpt>
      <trkpt lat="44.67883" lon="6.695">
        <ele>1049.596924</ele>
        <time>2010-08-16T11:34:46Z</time>
      </trkpt>
      <trkpt lat="44.67842" lon="6.69492">
        <ele>1045.643066</ele>
        <time>2010-08-16T11:36:49Z</time>
      </trkpt>
      <trkpt lat="44.67823" lon="6.69498">
        <ele>1048.817627</ele>
        <time>2010-08-16T11:37:11Z</time>
      </trkpt>
      <trkpt lat="44.678" lon="6.69473">
        <ele>1048.687866</ele>
        <time>2010-08-16T11:37:16Z</time>
      </trkpt>
      <trkpt lat="44.67787" lon="6.69448">
        <ele>1045.335938</ele>
        <time>2010-08-16T11:37:20Z</time>
      </trkpt>
      <trkpt lat="44.67778" lon="6.69433">
        <ele>1045.84021</ele>
        <time>2010-08-16T11:37:22Z</time>
      </trkpt>
      <trkpt lat="44.67758" lon="6.69403">
        <ele>1043.687744</ele>
        <time>2010-08-16T11:37:27Z</time>
      </trkpt>
      <trkpt lat="44.67742" lon="6.69377">
        <ele>1041.552856</ele>
        <time>2010-08-16T11:37:31Z</time>
      </trkpt>
      <trkpt lat="44.67722" lon="6.69362">
        <ele>1042.241211</ele>
        <time>2010-08-16T11:37:36Z</time>
      </trkpt>
      <trkpt lat="44.67707" lon="6.6936">
        <ele>1043.098022</ele>
        <time>2010-08-16T11:37:40Z</time>
      </trkpt>
      <trkpt lat="44.67697" lon="6.69375">
        <ele>1045.962158</ele>
        <time>2010-08-16T11:37:45Z</time>
      </trkpt>
      <trkpt lat="44.67682" lon="6.69383">
        <ele>1049.383789</ele>
        <time>2010-08-16T11:37:49Z</time>
      </trkpt>
      <trkpt lat="44.67663" lon="6.69367">
        <ele>1051.071777</ele>
        <time>2010-08-16T11:37:56Z</time>
      </trkpt>
      <trkpt lat="44.67657" lon="6.69348">
        <ele>1052.259155</ele>
        <time>2010-08-16T11:38:02Z</time>
      </trkpt>
      <trkpt lat="44.6765" lon="6.6933">
        <ele>1053.174194</ele>
        <time>2010-08-16T11:38:09Z</time>
      </trkpt>
      <trkpt lat="44.67635" lon="6.69318">
        <ele>1057.881226</ele>
        <time>2010-08-16T11:38:16Z</time>
      </trkpt>
      <trkpt lat="44.6762" lon="6.6931">
        <ele>1062.664551</ele>
        <time>2010-08-16T11:38:20Z</time>
      </trkpt>
      <trkpt lat="44.6761" lon="6.69297">
        <ele>1067.72937</ele>
        <time>2010-08-16T11:38:55Z</time>
      </trkpt>
      <trkpt lat="44.676" lon="6.69278">
        <ele>1068.974121</ele>
        <time>2010-08-16T11:40:24Z</time>
      </trkpt>
      <trkpt lat="44.67587" lon="6.69265">
        <ele>1070.8125</ele>
        <time>2010-08-16T11:40:33Z</time>
      </trkpt>
      <trkpt lat="44.67572" lon="6.69252">
        <ele>1070.899048</ele>
        <time>2010-08-16T11:40:39Z</time>
      </trkpt>
      <trkpt lat="44.6756" lon="6.69242">
        <ele>1073.18811</ele>
        <time>2010-08-16T11:40:44Z</time>
      </trkpt>
      <trkpt lat="44.67532" lon="6.69228">
        <ele>1084.487671</ele>
        <time>2010-08-16T11:41:02Z</time>
      </trkpt>
      <trkpt lat="44.67532" lon="6.69202">
        <ele>1078.900391</ele>
        <time>2010-08-16T11:41:20Z</time>
      </trkpt>
      <trkpt lat="44.67527" lon="6.6918">
        <ele>1077.899048</ele>
        <time>2010-08-16T11:41:31Z</time>
      </trkpt>
      <trkpt lat="44.6752" lon="6.69163">
        <ele>1078.084961</ele>
        <time>2010-08-16T11:41:38Z</time>
      </trkpt>
      <trkpt lat="44.6751" lon="6.69147">
        <ele>1079.488647</ele>
        <time>2010-08-16T11:41:49Z</time>
      </trkpt>
      <trkpt lat="44.67498" lon="6.69135">
        <ele>1082.469604</ele>
        <time>2010-08-16T11:42:00Z</time>
      </trkpt>
      <trkpt lat="44.67478" lon="6.6912">
        <ele>1087.044067</ele>
        <time>2010-08-16T11:42:18Z</time>
      </trkpt>
      <trkpt lat="44.67458" lon="6.69098">
        <ele>1092.049072</ele>
        <time>2010-08-16T11:42:52Z</time>
      </trkpt>
      <trkpt lat="44.67437" lon="6.6908">
        <ele>1100.645386</ele>
        <time>2010-08-16T11:43:10Z</time>
      </trkpt>
      <trkpt lat="44.67425" lon="6.69068">
        <ele>1105.393311</ele>
        <time>2010-08-16T11:43:17Z</time>
      </trkpt>
      <trkpt lat="44.67415" lon="6.69053">
        <ele>1109.196045</ele>
        <time>2010-08-16T11:43:29Z</time>
      </trkpt>
      <trkpt lat="44.6743" lon="6.69043">
        <ele>1103.755493</ele>
        <time>2010-08-16T11:43:40Z</time>
      </trkpt>
      <trkpt lat="44.67445" lon="6.6903">
        <ele>1102.109619</ele>
        <time>2010-08-16T11:43:49Z</time>
      </trkpt>
      <trkpt lat="44.6746" lon="6.69028">
        <ele>1094.446167</ele>
        <time>2010-08-16T11:43:55Z</time>
      </trkpt>
      <trkpt lat="44.67473" lon="6.69022">
        <ele>1089.538696</ele>
        <time>2010-08-16T11:44:02Z</time>
      </trkpt>
      <trkpt lat="44.6749" lon="6.69023">
        <ele>1079.432251</ele>
        <time>2010-08-16T11:44:09Z</time>
      </trkpt>
      <trkpt lat="44.67505" lon="6.69018">
        <ele>1070.981567</ele>
        <time>2010-08-16T11:44:16Z</time>
      </trkpt>
      <trkpt lat="44.67505" lon="6.68993">
        <ele>1078.114502</ele>
        <time>2010-08-16T11:44:25Z</time>
      </trkpt>
      <trkpt lat="44.6749" lon="6.68987">
        <ele>1088.781982</ele>
        <time>2010-08-16T11:44:32Z</time>
      </trkpt>
      <trkpt lat="44.67475" lon="6.68982">
        <ele>1097.062988</ele>
        <time>2010-08-16T11:44:39Z</time>
      </trkpt>
      <trkpt lat="44.67462" lon="6.68968">
        <ele>1100.630859</ele>
        <time>2010-08-16T11:44:45Z</time>
      </trkpt>
      <trkpt lat="44.67445" lon="6.6896">
        <ele>1110.617798</ele>
        <time>2010-08-16T11:44:54Z</time>
      </trkpt>
      <trkpt lat="44.67432" lon="6.68948">
        <ele>1117.819458</ele>
        <time>2010-08-16T11:45:01Z</time>
      </trkpt>
      <trkpt lat="44.67412" lon="6.68923">
        <ele>1126.974487</ele>
        <time>2010-08-16T11:45:10Z</time>
      </trkpt>
      <trkpt lat="44.67402" lon="6.68905">
        <ele>1129.699097</ele>
        <time>2010-08-16T11:45:19Z</time>
      </trkpt>
      <trkpt lat="44.67393" lon="6.6889">
        <ele>1132.270874</ele>
        <time>2010-08-16T11:45:23Z</time>
      </trkpt>
      <trkpt lat="44.67387" lon="6.6887">
        <ele>1130.75647</ele>
        <time>2010-08-16T11:45:29Z</time>
      </trkpt>
      <trkpt lat="44.6738" lon="6.68843">
        <ele>1126.317505</ele>
        <time>2010-08-16T11:45:36Z</time>
      </trkpt>
      <trkpt lat="44.67372" lon="6.68823">
        <ele>1126.225098</ele>
        <time>2010-08-16T11:45:42Z</time>
      </trkpt>
      <trkpt lat="44.67363" lon="6.68805">
        <ele>1126.692871</ele>
        <time>2010-08-16T11:45:49Z</time>
      </trkpt>
      <trkpt lat="44.67355" lon="6.68788">
        <ele>1128.449951</ele>
        <time>2010-08-16T11:45:55Z</time>
      </trkpt>
      <trkpt lat="44.67347" lon="6.68768">
        <ele>1131.257813</ele>
        <time>2010-08-16T11:46:02Z</time>
      </trkpt>
      <trkpt lat="44.67338" lon="6.6875">
        <ele>1134.132935</ele>
        <time>2010-08-16T11:46:08Z</time>
      </trkpt>
      <trkpt lat="44.67333" lon="6.6873">
        <ele>1132.517456</ele>
        <time>2010-08-16T11:46:13Z</time>
      </trkpt>
      <trkpt lat="44.6733" lon="6.68707">
        <ele>1132.427002</ele>
        <time>2010-08-16T11:46:20Z</time>
      </trkpt>
      <trkpt lat="44.67328" lon="6.68682">
        <ele>1131.58252</ele>
        <time>2010-08-16T11:46:26Z</time>
      </trkpt>
      <trkpt lat="44.67328" lon="6.68658">
        <ele>1129.86438</ele>
        <time>2010-08-16T11:46:31Z</time>
      </trkpt>
      <trkpt lat="44.67332" lon="6.68628">
        <ele>1128.078003</ele>
        <time>2010-08-16T11:46:38Z</time>
      </trkpt>
      <trkpt lat="44.67333" lon="6.68605">
        <ele>1127.815918</ele>
        <time>2010-08-16T11:46:44Z</time>
      </trkpt>
      <trkpt lat="44.67335" lon="6.68572">
        <ele>1130.304565</ele>
        <time>2010-08-16T11:46:53Z</time>
      </trkpt>
      <trkpt lat="44.67343" lon="6.68548">
        <ele>1126.612183</ele>
        <time>2010-08-16T11:47:00Z</time>
      </trkpt>
      <trkpt lat="44.67353" lon="6.68528">
        <ele>1119.05957</ele>
        <time>2010-08-16T11:47:06Z</time>
      </trkpt>
      <trkpt lat="44.67348" lon="6.68503">
        <ele>1119.768555</ele>
        <time>2010-08-16T11:47:13Z</time>
      </trkpt>
      <trkpt lat="44.67338" lon="6.68482">
        <ele>1123.634521</ele>
        <time>2010-08-16T11:47:20Z</time>
      </trkpt>
      <trkpt lat="44.67327" lon="6.68468">
        <ele>1126.304321</ele>
        <time>2010-08-16T11:47:27Z</time>
      </trkpt>
      <trkpt lat="44.67312" lon="6.6846">
        <ele>1130.473267</ele>
        <time>2010-08-16T11:47:32Z</time>
      </trkpt>
      <trkpt lat="44.67298" lon="6.68452">
        <ele>1133.791748</ele>
        <time>2010-08-16T11:47:39Z</time>
      </trkpt>
      <trkpt lat="44.67283" lon="6.68442">
        <ele>1139.08374</ele>
        <time>2010-08-16T11:47:45Z</time>
      </trkpt>
      <trkpt lat="44.67268" lon="6.68425">
        <ele>1142.532349</ele>
        <time>2010-08-16T11:47:54Z</time>
      </trkpt>
      <trkpt lat="44.67258" lon="6.6841">
        <ele>1143.404785</ele>
        <time>2010-08-16T11:48:01Z</time>
      </trkpt>
      <trkpt lat="44.67247" lon="6.68393">
        <ele>1144.408447</ele>
        <time>2010-08-16T11:48:08Z</time>
      </trkpt>
      <trkpt lat="44.67235" lon="6.6838">
        <ele>1146.11731</ele>
        <time>2010-08-16T11:48:17Z</time>
      </trkpt>
      <trkpt lat="44.67222" lon="6.68368">
        <ele>1149.695557</ele>
        <time>2010-08-16T11:48:27Z</time>
      </trkpt>
      <trkpt lat="44.67203" lon="6.68348">
        <ele>1151.766113</ele>
        <time>2010-08-16T11:48:47Z</time>
      </trkpt>
      <trkpt lat="44.67212" lon="6.68362">
        <ele>1153.343384</ele>
        <time>2010-08-16T11:55:39Z</time>
      </trkpt>
      <trkpt lat="44.67202" lon="6.68343">
        <ele>1149.932983</ele>
        <time>2010-08-16T11:55:56Z</time>
      </trkpt>
      <trkpt lat="44.67198" lon="6.68342">
        <ele>1150.607544</ele>
        <time>2010-08-16T11:55:58Z</time>
      </trkpt>
      <trkpt lat="44.67185" lon="6.68327">
        <ele>1149.869141</ele>
        <time>2010-08-16T11:56:07Z</time>
      </trkpt>
      <trkpt lat="44.67172" lon="6.68318">
        <ele>1152.866577</ele>
        <time>2010-08-16T11:56:16Z</time>
      </trkpt>
      <trkpt lat="44.67158" lon="6.68312">
        <ele>1155.941284</ele>
        <time>2010-08-16T11:56:25Z</time>
      </trkpt>
      <trkpt lat="44.67145" lon="6.68305">
        <ele>1157.541504</ele>
        <time>2010-08-16T11:56:36Z</time>
      </trkpt>
      <trkpt lat="44.6713" lon="6.68293">
        <ele>1156.898926</ele>
        <time>2010-08-16T11:56:45Z</time>
      </trkpt>
      <trkpt lat="44.67117" lon="6.68285">
        <ele>1156.157715</ele>
        <time>2010-08-16T11:56:52Z</time>
      </trkpt>
      <trkpt lat="44.67103" lon="6.68277">
        <ele>1153.748047</ele>
        <time>2010-08-16T11:57:03Z</time>
      </trkpt>
      <trkpt lat="44.6709" lon="6.68273">
        <ele>1153.675171</ele>
        <time>2010-08-16T11:57:12Z</time>
      </trkpt>
      <trkpt lat="44.67072" lon="6.68277">
        <ele>1158.538696</ele>
        <time>2010-08-16T11:57:29Z</time>
      </trkpt>
      <trkpt lat="44.67058" lon="6.6828">
        <ele>1164.166016</ele>
        <time>2010-08-16T11:57:41Z</time>
      </trkpt>
      <trkpt lat="44.67043" lon="6.6827">
        <ele>1163.814697</ele>
        <time>2010-08-16T11:57:51Z</time>
      </trkpt>
      <trkpt lat="44.67028" lon="6.68263">
        <ele>1166.154297</ele>
        <time>2010-08-16T11:58:03Z</time>
      </trkpt>
      <trkpt lat="44.67008" lon="6.68255">
        <ele>1172.069458</ele>
        <time>2010-08-16T11:58:21Z</time>
      </trkpt>
      <trkpt lat="44.66997" lon="6.6824">
        <ele>1170.931274</ele>
        <time>2010-08-16T11:58:34Z</time>
      </trkpt>
      <trkpt lat="44.66983" lon="6.68227">
        <ele>1172.698608</ele>
        <time>2010-08-16T11:58:46Z</time>
      </trkpt>
      <trkpt lat="44.6697" lon="6.68218">
        <ele>1177.607544</ele>
        <time>2010-08-16T11:58:56Z</time>
      </trkpt>
      <trkpt lat="44.66958" lon="6.68208">
        <ele>1181.021484</ele>
        <time>2010-08-16T11:59:06Z</time>
      </trkpt>
      <trkpt lat="44.66942" lon="6.68195">
        <ele>1186.626953</ele>
        <time>2010-08-16T11:59:19Z</time>
      </trkpt>
      <trkpt lat="44.6693" lon="6.6818">
        <ele>1188.411621</ele>
        <time>2010-08-16T11:59:30Z</time>
      </trkpt>
      <trkpt lat="44.66918" lon="6.68168">
        <ele>1191.178101</ele>
        <time>2010-08-16T11:59:41Z</time>
      </trkpt>
      <trkpt lat="44.66903" lon="6.68143">
        <ele>1190.310303</ele>
        <time>2010-08-16T11:59:59Z</time>
      </trkpt>
      <trkpt lat="44.66893" lon="6.68128">
        <ele>1188.304199</ele>
        <time>2010-08-16T12:00:08Z</time>
      </trkpt>
      <trkpt lat="44.66882" lon="6.68113">
        <ele>1186.703003</ele>
        <time>2010-08-16T12:00:19Z</time>
      </trkpt>
      <trkpt lat="44.66868" lon="6.68097">
        <ele>1184.926636</ele>
        <time>2010-08-16T12:03:27Z</time>
      </trkpt>
      <trkpt lat="44.66852" lon="6.6808">
        <ele>1183.279419</ele>
        <time>2010-08-16T12:03:32Z</time>
      </trkpt>
      <trkpt lat="44.66832" lon="6.6806">
        <ele>1180.377319</ele>
        <time>2010-08-16T12:03:36Z</time>
      </trkpt>
      <trkpt lat="44.6682" lon="6.6805">
        <ele>1179.235718</ele>
        <time>2010-08-16T12:03:38Z</time>
      </trkpt>
      <trkpt lat="44.668" lon="6.68032">
        <ele>1177.831543</ele>
        <time>2010-08-16T12:03:41Z</time>
      </trkpt>
      <trkpt lat="44.66785" lon="6.68017">
        <ele>1176.163574</ele>
        <time>2010-08-16T12:03:43Z</time>
      </trkpt>
      <trkpt lat="44.6677" lon="6.67995">
        <ele>1171.897827</ele>
        <time>2010-08-16T12:03:45Z</time>
      </trkpt>
      <trkpt lat="44.66733" lon="6.67935">
        <ele>1167.517212</ele>
        <time>2010-08-16T12:03:50Z</time>
      </trkpt>
      <trkpt lat="44.66715" lon="6.6789">
        <ele>1164.172119</ele>
        <time>2010-08-16T12:03:53Z</time>
      </trkpt>
      <trkpt lat="44.66602" lon="6.67642">
        <ele>1157.452393</ele>
        <time>2010-08-16T12:04:12Z</time>
      </trkpt>
      <trkpt lat="44.6658" lon="6.67593">
        <ele>1161.904663</ele>
        <time>2010-08-16T12:04:18Z</time>
      </trkpt>
      <trkpt lat="44.6658" lon="6.6756">
        <ele>1160.491089</ele>
        <time>2010-08-16T12:04:23Z</time>
      </trkpt>
      <trkpt lat="44.66578" lon="6.6753">
        <ele>1159.710693</ele>
        <time>2010-08-16T12:04:26Z</time>
      </trkpt>
      <trkpt lat="44.66567" lon="6.67503">
        <ele>1160.566406</ele>
        <time>2010-08-16T12:04:30Z</time>
      </trkpt>
      <trkpt lat="44.66543" lon="6.6748">
        <ele>1167.475952</ele>
        <time>2010-08-16T12:04:36Z</time>
      </trkpt>
      <trkpt lat="44.66537" lon="6.67458">
        <ele>1168.487549</ele>
        <time>2010-08-16T12:04:38Z</time>
      </trkpt>
      <trkpt lat="44.66542" lon="6.67427">
        <ele>1166.109253</ele>
        <time>2010-08-16T12:04:43Z</time>
      </trkpt>
      <trkpt lat="44.6654" lon="6.67402">
        <ele>1166.546997</ele>
        <time>2010-08-16T12:04:45Z</time>
      </trkpt>
      <trkpt lat="44.66542" lon="6.6737">
        <ele>1165.875854</ele>
        <time>2010-08-16T12:04:50Z</time>
      </trkpt>
      <trkpt lat="44.66543" lon="6.67342">
        <ele>1165.205078</ele>
        <time>2010-08-16T12:04:53Z</time>
      </trkpt>
      <trkpt lat="44.6654" lon="6.67317">
        <ele>1166.189453</ele>
        <time>2010-08-16T12:04:57Z</time>
      </trkpt>
      <trkpt lat="44.6653" lon="6.67245">
        <ele>1169.543701</ele>
        <time>2010-08-16T12:05:09Z</time>
      </trkpt>
      <trkpt lat="44.66533" lon="6.67218">
        <ele>1168.202148</ele>
        <time>2010-08-16T12:05:14Z</time>
      </trkpt>
      <trkpt lat="44.66537" lon="6.67198">
        <ele>1167.281372</ele>
        <time>2010-08-16T12:05:18Z</time>
      </trkpt>
      <trkpt lat="44.66538" lon="6.67173">
        <ele>1167.355347</ele>
        <time>2010-08-16T12:05:23Z</time>
      </trkpt>
      <trkpt lat="44.66542" lon="6.67133">
        <ele>1167.420898</ele>
        <time>2010-08-16T12:05:31Z</time>
      </trkpt>
      <trkpt lat="44.66547" lon="6.67115">
        <ele>1166.109253</ele>
        <time>2010-08-16T12:05:35Z</time>
      </trkpt>
      <trkpt lat="44.6655" lon="6.67093">
        <ele>1165.619507</ele>
        <time>2010-08-16T12:05:41Z</time>
      </trkpt>
      <trkpt lat="44.66548" lon="6.67068">
        <ele>1166.669922</ele>
        <time>2010-08-16T12:05:45Z</time>
      </trkpt>
      <trkpt lat="44.66547" lon="6.67025">
        <ele>1167.483398</ele>
        <time>2010-08-16T12:05:56Z</time>
      </trkpt>
      <trkpt lat="44.66553" lon="6.67002">
        <ele>1163.341553</ele>
        <time>2010-08-16T12:06:00Z</time>
      </trkpt>
      <trkpt lat="44.66565" lon="6.6697">
        <ele>1156.852417</ele>
        <time>2010-08-16T12:06:07Z</time>
      </trkpt>
      <trkpt lat="44.66567" lon="6.6695">
        <ele>1155.341064</ele>
        <time>2010-08-16T12:06:11Z</time>
      </trkpt>
      <trkpt lat="44.66562" lon="6.66928">
        <ele>1156.450073</ele>
        <time>2010-08-16T12:06:18Z</time>
      </trkpt>
      <trkpt lat="44.66548" lon="6.66915">
        <ele>1161.069092</ele>
        <time>2010-08-16T12:06:23Z</time>
      </trkpt>
      <trkpt lat="44.66535" lon="6.6691">
        <ele>1162.259521</ele>
        <time>2010-08-16T12:06:27Z</time>
      </trkpt>
      <trkpt lat="44.66517" lon="6.66907">
        <ele>1160.577637</ele>
        <time>2010-08-16T12:06:33Z</time>
      </trkpt>
      <trkpt lat="44.66497" lon="6.66913">
        <ele>1161.145142</ele>
        <time>2010-08-16T12:06:38Z</time>
      </trkpt>
      <trkpt lat="44.66455" lon="6.66925">
        <ele>1160.68396</ele>
        <time>2010-08-16T12:06:44Z</time>
      </trkpt>
      <trkpt lat="44.66438" lon="6.66928">
        <ele>1160.566528</ele>
        <time>2010-08-16T12:06:47Z</time>
      </trkpt>
      <trkpt lat="44.66412" lon="6.6693">
        <ele>1158.915405</ele>
        <time>2010-08-16T12:06:49Z</time>
      </trkpt>
      <trkpt lat="44.66398" lon="6.66922">
        <ele>1159.465332</ele>
        <time>2010-08-16T12:06:51Z</time>
      </trkpt>
      <trkpt lat="44.6639" lon="6.66898">
        <ele>1158.040039</ele>
        <time>2010-08-16T12:06:53Z</time>
      </trkpt>
      <trkpt lat="44.66383" lon="6.66873">
        <ele>1156.846924</ele>
        <time>2010-08-16T12:06:55Z</time>
      </trkpt>
      <trkpt lat="44.6638" lon="6.66845">
        <ele>1155.436401</ele>
        <time>2010-08-16T12:06:57Z</time>
      </trkpt>
      <trkpt lat="44.66378" lon="6.66797">
        <ele>1153.342163</ele>
        <time>2010-08-16T12:07:00Z</time>
      </trkpt>
      <trkpt lat="44.6638" lon="6.66763">
        <ele>1151.76062</ele>
        <time>2010-08-16T12:07:02Z</time>
      </trkpt>
      <trkpt lat="44.66387" lon="6.66692">
        <ele>1147.435791</ele>
        <time>2010-08-16T12:07:06Z</time>
      </trkpt>
      <trkpt lat="44.66398" lon="6.66572">
        <ele>1133.357666</ele>
        <time>2010-08-16T12:07:13Z</time>
      </trkpt>
      <trkpt lat="44.66397" lon="6.66548">
        <ele>1128.645996</ele>
        <time>2010-08-16T12:07:15Z</time>
      </trkpt>
      <trkpt lat="44.66388" lon="6.66528">
        <ele>1125.741821</ele>
        <time>2010-08-16T12:07:17Z</time>
      </trkpt>
      <trkpt lat="44.66375" lon="6.66515">
        <ele>1124.728271</ele>
        <time>2010-08-16T12:07:19Z</time>
      </trkpt>
      <trkpt lat="44.66345" lon="6.6649">
        <ele>1122.754395</ele>
        <time>2010-08-16T12:07:26Z</time>
      </trkpt>
      <trkpt lat="44.6636" lon="6.6649">
        <ele>1120.390625</ele>
        <time>2010-08-16T12:08:13Z</time>
      </trkpt>
      <trkpt lat="44.66377" lon="6.66473">
        <ele>1114.089722</ele>
        <time>2010-08-16T12:08:24Z</time>
      </trkpt>
      <trkpt lat="44.66398" lon="6.66465">
        <ele>1110.558472</ele>
        <time>2010-08-16T12:08:37Z</time>
      </trkpt>
      <trkpt lat="44.66413" lon="6.66453">
        <ele>1107.588379</ele>
        <time>2010-08-16T12:08:47Z</time>
      </trkpt>
      <trkpt lat="44.66423" lon="6.66438">
        <ele>1105.575806</ele>
        <time>2010-08-16T12:08:56Z</time>
      </trkpt>
      <trkpt lat="44.66437" lon="6.66428">
        <ele>1104.95166</ele>
        <time>2010-08-16T12:09:03Z</time>
      </trkpt>
      <trkpt lat="44.66453" lon="6.66438">
        <ele>1105.850952</ele>
        <time>2010-08-16T12:09:13Z</time>
      </trkpt>
      <trkpt lat="44.66467" lon="6.66455">
        <ele>1106.978394</ele>
        <time>2010-08-16T12:09:20Z</time>
      </trkpt>
      <trkpt lat="44.66482" lon="6.66453">
        <ele>1105.293335</ele>
        <time>2010-08-16T12:09:26Z</time>
      </trkpt>
      <trkpt lat="44.66488" lon="6.66435">
        <ele>1103.528931</ele>
        <time>2010-08-16T12:09:37Z</time>
      </trkpt>
      <trkpt lat="44.66493" lon="6.66412">
        <ele>1101.794922</ele>
        <time>2010-08-16T12:10:18Z</time>
      </trkpt>
      <trkpt lat="44.66487" lon="6.66395">
        <ele>1101.542847</ele>
        <time>2010-08-16T12:10:45Z</time>
      </trkpt>
      <trkpt lat="44.66473" lon="6.664">
        <ele>1103.024414</ele>
        <time>2010-08-16T12:11:05Z</time>
      </trkpt>
      <trkpt lat="44.6647" lon="6.6642">
        <ele>1104.610229</ele>
        <time>2010-08-16T12:11:16Z</time>
      </trkpt>
      <trkpt lat="44.66453" lon="6.66432">
        <ele>1105.361694</ele>
        <time>2010-08-16T12:11:27Z</time>
      </trkpt>
      <trkpt lat="44.66445" lon="6.66412">
        <ele>1103.868652</ele>
        <time>2010-08-16T12:14:52Z</time>
      </trkpt>
      <trkpt lat="44.66432" lon="6.66417">
        <ele>1104.135254</ele>
        <time>2010-08-16T12:15:45Z</time>
      </trkpt>
      <trkpt lat="44.66418" lon="6.66413">
        <ele>1104.148438</ele>
        <time>2010-08-16T12:15:57Z</time>
      </trkpt>
      <trkpt lat="44.6643" lon="6.664">
        <ele>1103.049561</ele>
        <time>2010-08-16T12:16:19Z</time>
      </trkpt>
      <trkpt lat="44.6644" lon="6.66383">
        <ele>1102.045898</ele>
        <time>2010-08-16T12:17:07Z</time>
      </trkpt>
      <trkpt lat="44.66453" lon="6.66373">
        <ele>1102.035278</ele>
        <time>2010-08-16T12:17:31Z</time>
      </trkpt>
      <trkpt lat="44.66438" lon="6.66368">
        <ele>1102.812378</ele>
        <time>2010-08-16T12:18:05Z</time>
      </trkpt>
      <trkpt lat="44.66447" lon="6.66352">
        <ele>1102.888184</ele>
        <time>2010-08-16T12:19:03Z</time>
      </trkpt>
      <trkpt lat="44.6646" lon="6.66348">
        <ele>1101.433228</ele>
        <time>2010-08-16T12:19:11Z</time>
      </trkpt>
      <trkpt lat="44.66477" lon="6.66348">
        <ele>1099.557739</ele>
        <time>2010-08-16T12:19:17Z</time>
      </trkpt>
      <trkpt lat="44.66492" lon="6.6635">
        <ele>1099.805176</ele>
        <time>2010-08-16T12:19:21Z</time>
      </trkpt>
      <trkpt lat="44.66505" lon="6.66338">
        <ele>1099.97229</ele>
        <time>2010-08-16T12:19:27Z</time>
      </trkpt>
      <trkpt lat="44.6652" lon="6.66323">
        <ele>1102.153687</ele>
        <time>2010-08-16T12:19:35Z</time>
      </trkpt>
      <trkpt lat="44.66535" lon="6.66322">
        <ele>1102.482544</ele>
        <time>2010-08-16T12:19:43Z</time>
      </trkpt>
      <trkpt lat="44.66552" lon="6.66333">
        <ele>1099.337524</ele>
        <time>2010-08-16T12:19:49Z</time>
      </trkpt>
      <trkpt lat="44.66565" lon="6.66345">
        <ele>1097.470215</ele>
        <time>2010-08-16T12:19:55Z</time>
      </trkpt>
      <trkpt lat="44.6658" lon="6.66347">
        <ele>1093.31604</ele>
        <time>2010-08-16T12:20:01Z</time>
      </trkpt>
      <trkpt lat="44.66593" lon="6.66338">
        <ele>1090.552124</ele>
        <time>2010-08-16T12:20:19Z</time>
      </trkpt>
      <trkpt lat="44.66598" lon="6.66317">
        <ele>1093.018799</ele>
        <time>2010-08-16T12:20:25Z</time>
      </trkpt>
      <trkpt lat="44.66598" lon="6.66293">
        <ele>1097.830811</ele>
        <time>2010-08-16T12:20:29Z</time>
      </trkpt>
      <trkpt lat="44.66603" lon="6.66267">
        <ele>1100.852295</ele>
        <time>2010-08-16T12:20:33Z</time>
      </trkpt>
      <trkpt lat="44.66607" lon="6.66242">
        <ele>1103.52063</ele>
        <time>2010-08-16T12:20:41Z</time>
      </trkpt>
      <trkpt lat="44.66615" lon="6.66218">
        <ele>1103.677734</ele>
        <time>2010-08-16T12:20:47Z</time>
      </trkpt>
      <trkpt lat="44.66623" lon="6.66198">
        <ele>1102.752441</ele>
        <time>2010-08-16T12:20:51Z</time>
      </trkpt>
      <trkpt lat="44.66633" lon="6.6617">
        <ele>1101.639893</ele>
        <time>2010-08-16T12:20:57Z</time>
      </trkpt>
      <trkpt lat="44.66633" lon="6.66145">
        <ele>1104.705078</ele>
        <time>2010-08-16T12:21:03Z</time>
      </trkpt>
      <trkpt lat="44.66632" lon="6.6612">
        <ele>1106.13562</ele>
        <time>2010-08-16T12:21:09Z</time>
      </trkpt>
      <trkpt lat="44.66627" lon="6.66078">
        <ele>1108.717163</ele>
        <time>2010-08-16T12:21:17Z</time>
      </trkpt>
      <trkpt lat="44.66632" lon="6.66038">
        <ele>1106.414185</ele>
        <time>2010-08-16T12:21:21Z</time>
      </trkpt>
      <trkpt lat="44.66638" lon="6.66013">
        <ele>1103.420166</ele>
        <time>2010-08-16T12:21:23Z</time>
      </trkpt>
      <trkpt lat="44.66642" lon="6.65987">
        <ele>1100.357788</ele>
        <time>2010-08-16T12:21:25Z</time>
      </trkpt>
      <trkpt lat="44.66642" lon="6.65962">
        <ele>1098.574463</ele>
        <time>2010-08-16T12:21:27Z</time>
      </trkpt>
      <trkpt lat="44.66647" lon="6.65942">
        <ele>1095.952026</ele>
        <time>2010-08-16T12:21:29Z</time>
      </trkpt>
      <trkpt lat="44.66655" lon="6.6591">
        <ele>1092.093018</ele>
        <time>2010-08-16T12:21:33Z</time>
      </trkpt>
      <trkpt lat="44.66655" lon="6.65888">
        <ele>1091.637451</ele>
        <time>2010-08-16T12:21:37Z</time>
      </trkpt>
      <trkpt lat="44.6665" lon="6.6587">
        <ele>1092.805054</ele>
        <time>2010-08-16T12:21:45Z</time>
      </trkpt>
      <trkpt lat="44.66655" lon="6.65902">
        <ele>1091.828613</ele>
        <time>2010-08-16T12:23:51Z</time>
      </trkpt>
      <trkpt lat="44.66667" lon="6.65912">
        <ele>1088.358765</ele>
        <time>2010-08-16T12:23:55Z</time>
      </trkpt>
      <trkpt lat="44.6668" lon="6.65905">
        <ele>1084.522339</ele>
        <time>2010-08-16T12:23:58Z</time>
      </trkpt>
      <trkpt lat="44.66693" lon="6.65902">
        <ele>1081.446167</ele>
        <time>2010-08-16T12:24:41Z</time>
      </trkpt>
      <trkpt lat="44.66715" lon="6.65918">
        <ele>1075.490723</ele>
        <time>2010-08-16T12:24:47Z</time>
      </trkpt>
      <trkpt lat="44.66742" lon="6.65908">
        <ele>1069.551392</ele>
        <time>2010-08-16T12:24:52Z</time>
      </trkpt>
      <trkpt lat="44.66755" lon="6.65915">
        <ele>1066.177368</ele>
        <time>2010-08-16T12:24:57Z</time>
      </trkpt>
      <trkpt lat="44.66742" lon="6.65907">
        <ele>1069.589722</ele>
        <time>2010-08-16T12:25:36Z</time>
      </trkpt>
      <trkpt lat="44.66728" lon="6.65915">
        <ele>1072.570068</ele>
        <time>2010-08-16T12:25:42Z</time>
      </trkpt>
      <trkpt lat="44.66713" lon="6.65915">
        <ele>1076.131836</ele>
        <time>2010-08-16T12:25:51Z</time>
      </trkpt>
      <trkpt lat="44.66702" lon="6.659">
        <ele>1079.631348</ele>
        <time>2010-08-16T12:25:59Z</time>
      </trkpt>
      <trkpt lat="44.667" lon="6.65877">
        <ele>1080.72937</ele>
        <time>2010-08-16T12:26:31Z</time>
      </trkpt>
      <trkpt lat="44.6671" lon="6.65858">
        <ele>1078.961914</ele>
        <time>2010-08-16T12:26:40Z</time>
      </trkpt>
      <trkpt lat="44.6672" lon="6.65843">
        <ele>1076.984741</ele>
        <time>2010-08-16T12:26:49Z</time>
      </trkpt>
      <trkpt lat="44.6673" lon="6.65827">
        <ele>1073.283691</ele>
        <time>2010-08-16T12:27:00Z</time>
      </trkpt>
      <trkpt lat="44.66743" lon="6.65808">
        <ele>1068.985229</ele>
        <time>2010-08-16T12:27:09Z</time>
      </trkpt>
      <trkpt lat="44.66757" lon="6.658">
        <ele>1065.579102</ele>
        <time>2010-08-16T12:27:16Z</time>
      </trkpt>
      <trkpt lat="44.66773" lon="6.65788">
        <ele>1060.782715</ele>
        <time>2010-08-16T12:27:47Z</time>
      </trkpt>
      <trkpt lat="44.6679" lon="6.6577">
        <ele>1057.11377</ele>
        <time>2010-08-16T12:27:54Z</time>
      </trkpt>
      <trkpt lat="44.66805" lon="6.65752">
        <ele>1055.010986</ele>
        <time>2010-08-16T12:28:01Z</time>
      </trkpt>
      <trkpt lat="44.66817" lon="6.65742">
        <ele>1053.572021</ele>
        <time>2010-08-16T12:28:07Z</time>
      </trkpt>
      <trkpt lat="44.66833" lon="6.65735">
        <ele>1048.191284</ele>
        <time>2010-08-16T12:28:14Z</time>
      </trkpt>
      <trkpt lat="44.66852" lon="6.65727">
        <ele>1047.421631</ele>
        <time>2010-08-16T12:28:20Z</time>
      </trkpt>
      <trkpt lat="44.66868" lon="6.65717">
        <ele>1041.195557</ele>
        <time>2010-08-16T12:28:25Z</time>
      </trkpt>
      <trkpt lat="44.6688" lon="6.65705">
        <ele>1033.027344</ele>
        <time>2010-08-16T12:28:29Z</time>
      </trkpt>
      <trkpt lat="44.66888" lon="6.6569">
        <ele>1032.092407</ele>
        <time>2010-08-16T12:28:33Z</time>
      </trkpt>
      <trkpt lat="44.66892" lon="6.65668">
        <ele>1040.859863</ele>
        <time>2010-08-16T12:28:40Z</time>
      </trkpt>
      <trkpt lat="44.66902" lon="6.65647">
        <ele>1040.69812</ele>
        <time>2010-08-16T12:28:47Z</time>
      </trkpt>
      <trkpt lat="44.66907" lon="6.65618">
        <ele>1045.333984</ele>
        <time>2010-08-16T12:28:53Z</time>
      </trkpt>
      <trkpt lat="44.66905" lon="6.65593">
        <ele>1051.811157</ele>
        <time>2010-08-16T12:28:58Z</time>
      </trkpt>
      <trkpt lat="44.66905" lon="6.65568">
        <ele>1055.290405</ele>
        <time>2010-08-16T12:29:02Z</time>
      </trkpt>
      <trkpt lat="44.66903" lon="6.65548">
        <ele>1058.346802</ele>
        <time>2010-08-16T12:29:06Z</time>
      </trkpt>
      <trkpt lat="44.66903" lon="6.65518">
        <ele>1060.937012</ele>
        <time>2010-08-16T12:29:13Z</time>
      </trkpt>
      <trkpt lat="44.66905" lon="6.65495">
        <ele>1062.062866</ele>
        <time>2010-08-16T12:29:22Z</time>
      </trkpt>
      <trkpt lat="44.66903" lon="6.65475">
        <ele>1063.461914</ele>
        <time>2010-08-16T12:29:26Z</time>
      </trkpt>
      <trkpt lat="44.66905" lon="6.65453">
        <ele>1062.635498</ele>
        <time>2010-08-16T12:29:31Z</time>
      </trkpt>
      <trkpt lat="44.66907" lon="6.65432">
        <ele>1061.695435</ele>
        <time>2010-08-16T12:29:37Z</time>
      </trkpt>
      <trkpt lat="44.66918" lon="6.65422">
        <ele>1059.706421</ele>
        <time>2010-08-16T12:29:48Z</time>
      </trkpt>
      <trkpt lat="44.66932" lon="6.65417">
        <ele>1054.200562</ele>
        <time>2010-08-16T12:29:53Z</time>
      </trkpt>
      <trkpt lat="44.66943" lon="6.65387">
        <ele>1047.27417</ele>
        <time>2010-08-16T12:30:00Z</time>
      </trkpt>
      <trkpt lat="44.66948" lon="6.65368">
        <ele>1043.010376</ele>
        <time>2010-08-16T12:30:04Z</time>
      </trkpt>
      <trkpt lat="44.66953" lon="6.65348">
        <ele>1038.73584</ele>
        <time>2010-08-16T12:30:08Z</time>
      </trkpt>
      <trkpt lat="44.66958" lon="6.65323">
        <ele>1037.72522</ele>
        <time>2010-08-16T12:30:13Z</time>
      </trkpt>
      <trkpt lat="44.66965" lon="6.65302">
        <ele>1036.114624</ele>
        <time>2010-08-16T12:30:17Z</time>
      </trkpt>
      <trkpt lat="44.66972" lon="6.65277">
        <ele>1032.818726</ele>
        <time>2010-08-16T12:30:22Z</time>
      </trkpt>
      <trkpt lat="44.66977" lon="6.65258">
        <ele>1029.323364</ele>
        <time>2010-08-16T12:30:26Z</time>
      </trkpt>
      <trkpt lat="44.66983" lon="6.6524">
        <ele>1024.40918</ele>
        <time>2010-08-16T12:30:29Z</time>
      </trkpt>
      <trkpt lat="44.66975" lon="6.65212">
        <ele>1029.609863</ele>
        <time>2010-08-16T12:30:33Z</time>
      </trkpt>
      <trkpt lat="44.66965" lon="6.6519">
        <ele>1033.249512</ele>
        <time>2010-08-16T12:30:37Z</time>
      </trkpt>
      <trkpt lat="44.66963" lon="6.65167">
        <ele>1030.891113</ele>
        <time>2010-08-16T12:30:41Z</time>
      </trkpt>
      <trkpt lat="44.66957" lon="6.65137">
        <ele>1032.393799</ele>
        <time>2010-08-16T12:30:46Z</time>
      </trkpt>
      <trkpt lat="44.6695" lon="6.65112">
        <ele>1034.815308</ele>
        <time>2010-08-16T12:30:50Z</time>
      </trkpt>
      <trkpt lat="44.66955" lon="6.65073">
        <ele>1027.601685</ele>
        <time>2010-08-16T12:30:55Z</time>
      </trkpt>
      <trkpt lat="44.66967" lon="6.65045">
        <ele>1017.95813</ele>
        <time>2010-08-16T12:30:59Z</time>
      </trkpt>
      <trkpt lat="44.66975" lon="6.6503">
        <ele>1011.238525</ele>
        <time>2010-08-16T12:31:06Z</time>
      </trkpt>
      <trkpt lat="44.66968" lon="6.65012">
        <ele>1010.286011</ele>
        <time>2010-08-16T12:31:28Z</time>
      </trkpt>
      <trkpt lat="44.66957" lon="6.65">
        <ele>1013.876892</ele>
        <time>2010-08-16T12:31:33Z</time>
      </trkpt>
      <trkpt lat="44.66942" lon="6.64985">
        <ele>1018.898682</ele>
        <time>2010-08-16T12:31:39Z</time>
      </trkpt>
      <trkpt lat="44.6693" lon="6.64972">
        <ele>1023.508667</ele>
        <time>2010-08-16T12:31:44Z</time>
      </trkpt>
      <trkpt lat="44.66922" lon="6.6495">
        <ele>1025.353882</ele>
        <time>2010-08-16T12:31:50Z</time>
      </trkpt>
      <trkpt lat="44.66912" lon="6.64913">
        <ele>1026.146484</ele>
        <time>2010-08-16T12:31:59Z</time>
      </trkpt>
      <trkpt lat="44.66907" lon="6.64888">
        <ele>1027.402832</ele>
        <time>2010-08-16T12:32:06Z</time>
      </trkpt>
      <trkpt lat="44.66905" lon="6.6486">
        <ele>1026.355469</ele>
        <time>2010-08-16T12:32:12Z</time>
      </trkpt>
      <trkpt lat="44.66905" lon="6.6484">
        <ele>1025.000732</ele>
        <time>2010-08-16T12:32:18Z</time>
      </trkpt>
      <trkpt lat="44.66903" lon="6.6482">
        <ele>1027.001587</ele>
        <time>2010-08-16T12:32:29Z</time>
      </trkpt>
      <trkpt lat="44.66898" lon="6.64795">
        <ele>1030.929565</ele>
        <time>2010-08-16T12:32:42Z</time>
      </trkpt>
      <trkpt lat="44.66895" lon="6.6477">
        <ele>1032.492676</ele>
        <time>2010-08-16T12:32:49Z</time>
      </trkpt>
      <trkpt lat="44.66893" lon="6.64748">
        <ele>1032.453613</ele>
        <time>2010-08-16T12:32:55Z</time>
      </trkpt>
      <trkpt lat="44.66892" lon="6.64722">
        <ele>1032.357056</ele>
        <time>2010-08-16T12:33:05Z</time>
      </trkpt>
      <trkpt lat="44.66895" lon="6.64695">
        <ele>1029.95105</ele>
        <time>2010-08-16T12:33:14Z</time>
      </trkpt>
      <trkpt lat="44.66892" lon="6.64668">
        <ele>1030.272339</ele>
        <time>2010-08-16T12:33:20Z</time>
      </trkpt>
      <trkpt lat="44.66883" lon="6.6465">
        <ele>1033.255005</ele>
        <time>2010-08-16T12:33:26Z</time>
      </trkpt>
      <trkpt lat="44.66878" lon="6.64632">
        <ele>1034.404297</ele>
        <time>2010-08-16T12:33:32Z</time>
      </trkpt>
      <trkpt lat="44.66872" lon="6.64602">
        <ele>1035.863159</ele>
        <time>2010-08-16T12:33:42Z</time>
      </trkpt>
      <trkpt lat="44.66865" lon="6.64578">
        <ele>1038.084717</ele>
        <time>2010-08-16T12:33:48Z</time>
      </trkpt>
      <trkpt lat="44.6686" lon="6.64558">
        <ele>1039.782837</ele>
        <time>2010-08-16T12:33:55Z</time>
      </trkpt>
      <trkpt lat="44.66855" lon="6.64537">
        <ele>1039.702515</ele>
        <time>2010-08-16T12:34:04Z</time>
      </trkpt>
      <trkpt lat="44.66853" lon="6.64515">
        <ele>1039.290283</ele>
        <time>2010-08-16T12:34:13Z</time>
      </trkpt>
      <trkpt lat="44.66847" lon="6.64498">
        <ele>1040.171875</ele>
        <time>2010-08-16T12:34:22Z</time>
      </trkpt>
      <trkpt lat="44.66838" lon="6.64482">
        <ele>1041.314697</ele>
        <time>2010-08-16T12:34:31Z</time>
      </trkpt>
      <trkpt lat="44.66842" lon="6.64462">
        <ele>1040.59729</ele>
        <time>2010-08-16T12:34:44Z</time>
      </trkpt>
      <trkpt lat="44.66842" lon="6.6444">
        <ele>1041.570923</ele>
        <time>2010-08-16T12:36:29Z</time>
      </trkpt>
      <trkpt lat="44.66848" lon="6.64422">
        <ele>1041.684448</ele>
        <time>2010-08-16T12:36:38Z</time>
      </trkpt>
      <trkpt lat="44.66855" lon="6.64403">
        <ele>1041.955811</ele>
        <time>2010-08-16T12:36:45Z</time>
      </trkpt>
      <trkpt lat="44.6686" lon="6.64383">
        <ele>1043.017944</ele>
        <time>2010-08-16T12:36:51Z</time>
      </trkpt>
      <trkpt lat="44.66865" lon="6.6436">
        <ele>1044.78186</ele>
        <time>2010-08-16T12:36:58Z</time>
      </trkpt>
      <trkpt lat="44.66867" lon="6.64338">
        <ele>1046.723755</ele>
        <time>2010-08-16T12:37:05Z</time>
      </trkpt>
      <trkpt lat="44.6687" lon="6.64313">
        <ele>1048.706421</ele>
        <time>2010-08-16T12:37:13Z</time>
      </trkpt>
      <trkpt lat="44.66875" lon="6.64293">
        <ele>1048.313599</ele>
        <time>2010-08-16T12:37:20Z</time>
      </trkpt>
      <trkpt lat="44.66888" lon="6.64233">
        <ele>1050.845581</ele>
        <time>2010-08-16T12:37:38Z</time>
      </trkpt>
      <trkpt lat="44.66893" lon="6.64205">
        <ele>1053.891846</ele>
        <time>2010-08-16T12:37:46Z</time>
      </trkpt>
      <trkpt lat="44.66898" lon="6.64168">
        <ele>1056.37793</ele>
        <time>2010-08-16T12:37:58Z</time>
      </trkpt>
      <trkpt lat="44.66898" lon="6.64143">
        <ele>1057.797241</ele>
        <time>2010-08-16T12:38:04Z</time>
      </trkpt>
      <trkpt lat="44.66907" lon="6.64125">
        <ele>1056.676025</ele>
        <time>2010-08-16T12:38:09Z</time>
      </trkpt>
      <trkpt lat="44.66908" lon="6.64103">
        <ele>1055.390381</ele>
        <time>2010-08-16T12:38:16Z</time>
      </trkpt>
      <trkpt lat="44.66918" lon="6.64088">
        <ele>1053.672363</ele>
        <time>2010-08-16T12:38:20Z</time>
      </trkpt>
      <trkpt lat="44.66932" lon="6.64078">
        <ele>1049.900391</ele>
        <time>2010-08-16T12:38:27Z</time>
      </trkpt>
      <trkpt lat="44.66935" lon="6.64057">
        <ele>1048.817017</ele>
        <time>2010-08-16T12:38:31Z</time>
      </trkpt>
      <trkpt lat="44.6694" lon="6.64033">
        <ele>1046.744263</ele>
        <time>2010-08-16T12:38:38Z</time>
      </trkpt>
      <trkpt lat="44.66948" lon="6.64007">
        <ele>1042.911987</ele>
        <time>2010-08-16T12:38:44Z</time>
      </trkpt>
      <trkpt lat="44.66953" lon="6.63975">
        <ele>1040.510376</ele>
        <time>2010-08-16T12:38:49Z</time>
      </trkpt>
      <trkpt lat="44.66955" lon="6.63947">
        <ele>1039.750244</ele>
        <time>2010-08-16T12:38:53Z</time>
      </trkpt>
      <trkpt lat="44.66965" lon="6.63918">
        <ele>1032.63147</ele>
        <time>2010-08-16T12:38:58Z</time>
      </trkpt>
      <trkpt lat="44.66962" lon="6.63895">
        <ele>1034.477539</ele>
        <time>2010-08-16T12:39:00Z</time>
      </trkpt>
      <trkpt lat="44.66947" lon="6.6387">
        <ele>1042.093018</ele>
        <time>2010-08-16T12:39:04Z</time>
      </trkpt>
      <trkpt lat="44.66933" lon="6.63845">
        <ele>1047.97998</ele>
        <time>2010-08-16T12:39:08Z</time>
      </trkpt>
      <trkpt lat="44.66922" lon="6.63817">
        <ele>1044.227783</ele>
        <time>2010-08-16T12:39:13Z</time>
      </trkpt>
      <trkpt lat="44.66913" lon="6.63785">
        <ele>1039.713623</ele>
        <time>2010-08-16T12:39:19Z</time>
      </trkpt>
      <trkpt lat="44.66902" lon="6.6377">
        <ele>1040.76416</ele>
        <time>2010-08-16T12:39:26Z</time>
      </trkpt>
      <trkpt lat="44.66892" lon="6.63752">
        <ele>1039.705444</ele>
        <time>2010-08-16T12:39:32Z</time>
      </trkpt>
      <trkpt lat="44.66888" lon="6.63728">
        <ele>1034.156128</ele>
        <time>2010-08-16T12:39:37Z</time>
      </trkpt>
      <trkpt lat="44.66885" lon="6.63707">
        <ele>1029.593262</ele>
        <time>2010-08-16T12:39:39Z</time>
      </trkpt>
      <trkpt lat="44.66878" lon="6.63682">
        <ele>1026.378906</ele>
        <time>2010-08-16T12:39:43Z</time>
      </trkpt>
      <trkpt lat="44.66863" lon="6.63657">
        <ele>1026.83728</ele>
        <time>2010-08-16T12:39:50Z</time>
      </trkpt>
      <trkpt lat="44.66855" lon="6.63638">
        <ele>1027.626709</ele>
        <time>2010-08-16T12:39:54Z</time>
      </trkpt>
      <trkpt lat="44.6685" lon="6.6362">
        <ele>1025.592163</ele>
        <time>2010-08-16T12:39:58Z</time>
      </trkpt>
      <trkpt lat="44.6684" lon="6.63602">
        <ele>1025.173096</ele>
        <time>2010-08-16T12:40:03Z</time>
      </trkpt>
      <trkpt lat="44.66832" lon="6.63583">
        <ele>1025.484863</ele>
        <time>2010-08-16T12:40:05Z</time>
      </trkpt>
      <trkpt lat="44.66817" lon="6.63558">
        <ele>1025.977661</ele>
        <time>2010-08-16T12:40:09Z</time>
      </trkpt>
      <trkpt lat="44.66797" lon="6.63532">
        <ele>1027.615967</ele>
        <time>2010-08-16T12:40:14Z</time>
      </trkpt>
      <trkpt lat="44.66787" lon="6.63518">
        <ele>1028.886475</ele>
        <time>2010-08-16T12:40:18Z</time>
      </trkpt>
      <trkpt lat="44.6678" lon="6.63502">
        <ele>1029.144043</ele>
        <time>2010-08-16T12:40:22Z</time>
      </trkpt>
      <trkpt lat="44.66773" lon="6.63475">
        <ele>1028.885498</ele>
        <time>2010-08-16T12:40:27Z</time>
      </trkpt>
      <trkpt lat="44.66762" lon="6.63445">
        <ele>1031.113892</ele>
        <time>2010-08-16T12:40:36Z</time>
      </trkpt>
      <trkpt lat="44.66758" lon="6.63422">
        <ele>1028.247925</ele>
        <time>2010-08-16T12:40:42Z</time>
      </trkpt>
      <trkpt lat="44.66755" lon="6.63402">
        <ele>1026.168457</ele>
        <time>2010-08-16T12:40:49Z</time>
      </trkpt>
      <trkpt lat="44.6675" lon="6.6338">
        <ele>1024.873779</ele>
        <time>2010-08-16T12:40:59Z</time>
      </trkpt>
      <trkpt lat="44.66745" lon="6.63362">
        <ele>1019.46936</ele>
        <time>2010-08-16T12:41:06Z</time>
      </trkpt>
      <trkpt lat="44.6674" lon="6.63343">
        <ele>1015.267578</ele>
        <time>2010-08-16T12:41:12Z</time>
      </trkpt>
      <trkpt lat="44.66725" lon="6.63328">
        <ele>1018.687683</ele>
        <time>2010-08-16T12:41:19Z</time>
      </trkpt>
      <trkpt lat="44.66713" lon="6.63305">
        <ele>1015.815613</ele>
        <time>2010-08-16T12:41:24Z</time>
      </trkpt>
      <trkpt lat="44.66708" lon="6.63285">
        <ele>1013.142578</ele>
        <time>2010-08-16T12:41:28Z</time>
      </trkpt>
      <trkpt lat="44.66702" lon="6.6326">
        <ele>1012.30603</ele>
        <time>2010-08-16T12:41:37Z</time>
      </trkpt>
      <trkpt lat="44.66697" lon="6.63242">
        <ele>1013.288757</ele>
        <time>2010-08-16T12:41:44Z</time>
      </trkpt>
      <trkpt lat="44.66695" lon="6.6322">
        <ele>1011.906799</ele>
        <time>2010-08-16T12:41:50Z</time>
      </trkpt>
      <trkpt lat="44.66692" lon="6.632">
        <ele>1012.400513</ele>
        <time>2010-08-16T12:41:57Z</time>
      </trkpt>
      <trkpt lat="44.66693" lon="6.63178">
        <ele>1008.047791</ele>
        <time>2010-08-16T12:42:10Z</time>
      </trkpt>
      <trkpt lat="44.66702" lon="6.63155">
        <ele>995.283386</ele>
        <time>2010-08-16T12:42:16Z</time>
      </trkpt>
      <trkpt lat="44.66697" lon="6.63128">
        <ele>994.84436</ele>
        <time>2010-08-16T12:42:23Z</time>
      </trkpt>
      <trkpt lat="44.6669" lon="6.63112">
        <ele>992.102051</ele>
        <time>2010-08-16T12:42:27Z</time>
      </trkpt>
      <trkpt lat="44.66667" lon="6.63107">
        <ele>1000.896851</ele>
        <time>2010-08-16T12:42:34Z</time>
      </trkpt>
      <trkpt lat="44.66652" lon="6.6311">
        <ele>1010.362</ele>
        <time>2010-08-16T12:42:38Z</time>
      </trkpt>
      <trkpt lat="44.66638" lon="6.63105">
        <ele>1012.340393</ele>
        <time>2010-08-16T12:42:43Z</time>
      </trkpt>
      <trkpt lat="44.66622" lon="6.63078">
        <ele>1009.998535</ele>
        <time>2010-08-16T12:42:52Z</time>
      </trkpt>
      <trkpt lat="44.66613" lon="6.63063">
        <ele>1011.92804</ele>
        <time>2010-08-16T12:42:56Z</time>
      </trkpt>
      <trkpt lat="44.66595" lon="6.63058">
        <ele>1017.67981</ele>
        <time>2010-08-16T12:43:03Z</time>
      </trkpt>
      <trkpt lat="44.66582" lon="6.63072">
        <ele>1018.171204</ele>
        <time>2010-08-16T12:43:08Z</time>
      </trkpt>
      <trkpt lat="44.6658" lon="6.63092">
        <ele>1018.308716</ele>
        <time>2010-08-16T12:43:18Z</time>
      </trkpt>
      <trkpt lat="44.6658" lon="6.63112">
        <ele>1018.534912</ele>
        <time>2010-08-16T12:43:31Z</time>
      </trkpt>
      <trkpt lat="44.66568" lon="6.63102">
        <ele>1017.440918</ele>
        <time>2010-08-16T12:43:38Z</time>
      </trkpt>
      <trkpt lat="44.66562" lon="6.63085">
        <ele>1017.451355</ele>
        <time>2010-08-16T12:43:42Z</time>
      </trkpt>
      <trkpt lat="44.66552" lon="6.6306">
        <ele>1016.839966</ele>
        <time>2010-08-16T12:43:49Z</time>
      </trkpt>
      <trkpt lat="44.66545" lon="6.6304">
        <ele>1015.750977</ele>
        <time>2010-08-16T12:43:53Z</time>
      </trkpt>
      <trkpt lat="44.6654" lon="6.63018">
        <ele>1014.798584</ele>
        <time>2010-08-16T12:43:58Z</time>
      </trkpt>
      <trkpt lat="44.6653" lon="6.6298">
        <ele>1013.171875</ele>
        <time>2010-08-16T12:44:05Z</time>
      </trkpt>
      <trkpt lat="44.66518" lon="6.62945">
        <ele>1009.584961</ele>
        <time>2010-08-16T12:44:14Z</time>
      </trkpt>
      <trkpt lat="44.6652" lon="6.62923">
        <ele>1008.039551</ele>
        <time>2010-08-16T12:44:19Z</time>
      </trkpt>
      <trkpt lat="44.6652" lon="6.62902">
        <ele>1005.127075</ele>
        <time>2010-08-16T12:44:22Z</time>
      </trkpt>
      <trkpt lat="44.66517" lon="6.6288">
        <ele>1001.380737</ele>
        <time>2010-08-16T12:44:27Z</time>
      </trkpt>
      <trkpt lat="44.66507" lon="6.62858">
        <ele>997.693604</ele>
        <time>2010-08-16T12:44:31Z</time>
      </trkpt>
      <trkpt lat="44.66488" lon="6.62855">
        <ele>996.59137</ele>
        <time>2010-08-16T12:44:35Z</time>
      </trkpt>
      <trkpt lat="44.66472" lon="6.62858">
        <ele>995.050049</ele>
        <time>2010-08-16T12:44:40Z</time>
      </trkpt>
      <trkpt lat="44.66457" lon="6.62873">
        <ele>992.34967</ele>
        <time>2010-08-16T12:44:44Z</time>
      </trkpt>
      <trkpt lat="44.6645" lon="6.6289">
        <ele>991.907104</ele>
        <time>2010-08-16T12:44:49Z</time>
      </trkpt>
      <trkpt lat="44.66447" lon="6.62915">
        <ele>992.946228</ele>
        <time>2010-08-16T12:44:53Z</time>
      </trkpt>
      <trkpt lat="44.66432" lon="6.6293">
        <ele>989.26593</ele>
        <time>2010-08-16T12:45:02Z</time>
      </trkpt>
      <trkpt lat="44.66417" lon="6.62948">
        <ele>986.745972</ele>
        <time>2010-08-16T12:45:10Z</time>
      </trkpt>
      <trkpt lat="44.66403" lon="6.62953">
        <ele>984.625</ele>
        <time>2010-08-16T12:45:14Z</time>
      </trkpt>
      <trkpt lat="44.66383" lon="6.62955">
        <ele>981.322388</ele>
        <time>2010-08-16T12:45:19Z</time>
      </trkpt>
      <trkpt lat="44.6637" lon="6.6295">
        <ele>978.48114</ele>
        <time>2010-08-16T12:45:37Z</time>
      </trkpt>
      <trkpt lat="44.6635" lon="6.62945">
        <ele>974.600647</ele>
        <time>2010-08-16T12:45:46Z</time>
      </trkpt>
      <trkpt lat="44.66335" lon="6.62947">
        <ele>972.867249</ele>
        <time>2010-08-16T12:45:50Z</time>
      </trkpt>
      <trkpt lat="44.6632" lon="6.62938">
        <ele>970.399597</ele>
        <time>2010-08-16T12:45:55Z</time>
      </trkpt>
      <trkpt lat="44.66303" lon="6.62922">
        <ele>967.269287</ele>
        <time>2010-08-16T12:46:00Z</time>
      </trkpt>
      <trkpt lat="44.66288" lon="6.6291">
        <ele>965.1698</ele>
        <time>2010-08-16T12:46:03Z</time>
      </trkpt>
      <trkpt lat="44.66278" lon="6.62928">
        <ele>965.898499</ele>
        <time>2010-08-16T12:46:08Z</time>
      </trkpt>
      <trkpt lat="44.66277" lon="6.62952">
        <ele>967.777222</ele>
        <time>2010-08-16T12:46:12Z</time>
      </trkpt>
      <trkpt lat="44.66272" lon="6.63028">
        <ele>970.570374</ele>
        <time>2010-08-16T12:46:25Z</time>
      </trkpt>
      <trkpt lat="44.66265" lon="6.63058">
        <ele>970.356567</ele>
        <time>2010-08-16T12:46:30Z</time>
      </trkpt>
      <trkpt lat="44.66255" lon="6.63092">
        <ele>970.14093</ele>
        <time>2010-08-16T12:46:36Z</time>
      </trkpt>
      <trkpt lat="44.66245" lon="6.63112">
        <ele>969.637207</ele>
        <time>2010-08-16T12:46:40Z</time>
      </trkpt>
      <trkpt lat="44.66233" lon="6.6314">
        <ele>969.325928</ele>
        <time>2010-08-16T12:46:45Z</time>
      </trkpt>
      <trkpt lat="44.66218" lon="6.63165">
        <ele>968.832153</ele>
        <time>2010-08-16T12:46:50Z</time>
      </trkpt>
      <trkpt lat="44.66205" lon="6.63182">
        <ele>968.267639</ele>
        <time>2010-08-16T12:46:54Z</time>
      </trkpt>
      <trkpt lat="44.66183" lon="6.6321">
        <ele>967.363708</ele>
        <time>2010-08-16T12:47:01Z</time>
      </trkpt>
      <trkpt lat="44.66163" lon="6.63243">
        <ele>966.118164</ele>
        <time>2010-08-16T12:47:05Z</time>
      </trkpt>
      <trkpt lat="44.66157" lon="6.63262">
        <ele>965.721741</ele>
        <time>2010-08-16T12:47:07Z</time>
      </trkpt>
      <trkpt lat="44.66153" lon="6.63285">
        <ele>965.604187</ele>
        <time>2010-08-16T12:47:09Z</time>
      </trkpt>
      <trkpt lat="44.6615" lon="6.63322">
        <ele>965.552185</ele>
        <time>2010-08-16T12:47:12Z</time>
      </trkpt>
      <trkpt lat="44.66145" lon="6.6336">
        <ele>966.075806</ele>
        <time>2010-08-16T12:47:16Z</time>
      </trkpt>
      <trkpt lat="44.66138" lon="6.63382">
        <ele>966.431091</ele>
        <time>2010-08-16T12:47:20Z</time>
      </trkpt>
      <trkpt lat="44.66128" lon="6.63413">
        <ele>966.861389</ele>
        <time>2010-08-16T12:47:29Z</time>
      </trkpt>
      <trkpt lat="44.66123" lon="6.6344">
        <ele>967.288391</ele>
        <time>2010-08-16T12:47:35Z</time>
      </trkpt>
      <trkpt lat="44.66125" lon="6.63468">
        <ele>967.890991</ele>
        <time>2010-08-16T12:47:41Z</time>
      </trkpt>
      <trkpt lat="44.66123" lon="6.63488">
        <ele>968.190308</ele>
        <time>2010-08-16T12:47:46Z</time>
      </trkpt>
      <trkpt lat="44.6612" lon="6.63535">
        <ele>968.820618</ele>
        <time>2010-08-16T12:47:54Z</time>
      </trkpt>
      <trkpt lat="44.66118" lon="6.63555">
        <ele>969.001648</ele>
        <time>2010-08-16T12:47:58Z</time>
      </trkpt>
      <trkpt lat="44.66112" lon="6.63585">
        <ele>969.083008</ele>
        <time>2010-08-16T12:48:03Z</time>
      </trkpt>
      <trkpt lat="44.66108" lon="6.63612">
        <ele>969.407898</ele>
        <time>2010-08-16T12:48:07Z</time>
      </trkpt>
      <trkpt lat="44.66108" lon="6.63632">
        <ele>969.759521</ele>
        <time>2010-08-16T12:48:11Z</time>
      </trkpt>
      <trkpt lat="44.66105" lon="6.63657">
        <ele>970.031616</ele>
        <time>2010-08-16T12:48:16Z</time>
      </trkpt>
      <trkpt lat="44.66103" lon="6.63677">
        <ele>970.250732</ele>
        <time>2010-08-16T12:48:20Z</time>
      </trkpt>
      <trkpt lat="44.66103" lon="6.63697">
        <ele>970.577759</ele>
        <time>2010-08-16T12:48:24Z</time>
      </trkpt>
      <trkpt lat="44.66108" lon="6.63722">
        <ele>971.593201</ele>
        <time>2010-08-16T12:48:31Z</time>
      </trkpt>
      <trkpt lat="44.6611" lon="6.63742">
        <ele>972.332458</ele>
        <time>2010-08-16T12:48:38Z</time>
      </trkpt>
      <trkpt lat="44.66112" lon="6.63765">
        <ele>973.208557</ele>
        <time>2010-08-16T12:48:44Z</time>
      </trkpt>
      <trkpt lat="44.66113" lon="6.63792">
        <ele>974.003174</ele>
        <time>2010-08-16T12:48:51Z</time>
      </trkpt>
      <trkpt lat="44.6611" lon="6.63813">
        <ele>974.074524</ele>
        <time>2010-08-16T12:48:58Z</time>
      </trkpt>
      <trkpt lat="44.66107" lon="6.63837">
        <ele>974.213318</ele>
        <time>2010-08-16T12:49:06Z</time>
      </trkpt>
      <trkpt lat="44.66103" lon="6.63858">
        <ele>974.632141</ele>
        <time>2010-08-16T12:49:11Z</time>
      </trkpt>
      <trkpt lat="44.66098" lon="6.63887">
        <ele>975.110168</ele>
        <time>2010-08-16T12:49:18Z</time>
      </trkpt>
      <trkpt lat="44.66088" lon="6.63932">
        <ele>975.255371</ele>
        <time>2010-08-16T12:49:26Z</time>
      </trkpt>
      <trkpt lat="44.6608" lon="6.6397">
        <ele>975.60614</ele>
        <time>2010-08-16T12:49:33Z</time>
      </trkpt>
      <trkpt lat="44.66073" lon="6.6399">
        <ele>976.138672</ele>
        <time>2010-08-16T12:49:37Z</time>
      </trkpt>
      <trkpt lat="44.66068" lon="6.6401">
        <ele>976.761719</ele>
        <time>2010-08-16T12:49:41Z</time>
      </trkpt>
      <trkpt lat="44.66062" lon="6.64037">
        <ele>977.668213</ele>
        <time>2010-08-16T12:49:46Z</time>
      </trkpt>
      <trkpt lat="44.66053" lon="6.64058">
        <ele>977.934937</ele>
        <time>2010-08-16T12:49:50Z</time>
      </trkpt>
      <trkpt lat="44.66047" lon="6.64075">
        <ele>978.010925</ele>
        <time>2010-08-16T12:49:54Z</time>
      </trkpt>
      <trkpt lat="44.6604" lon="6.64057">
        <ele>975.328735</ele>
        <time>2010-08-16T12:50:05Z</time>
      </trkpt>
      <trkpt lat="44.6604" lon="6.6403">
        <ele>973.305298</ele>
        <time>2010-08-16T12:50:09Z</time>
      </trkpt>
      <trkpt lat="44.66042" lon="6.64">
        <ele>971.828247</ele>
        <time>2010-08-16T12:50:12Z</time>
      </trkpt>
      <trkpt lat="44.6604" lon="6.63958">
        <ele>969.634766</ele>
        <time>2010-08-16T12:50:16Z</time>
      </trkpt>
      <trkpt lat="44.66037" lon="6.63882">
        <ele>967.49646</ele>
        <time>2010-08-16T12:50:25Z</time>
      </trkpt>
      <trkpt lat="44.66035" lon="6.63855">
        <ele>966.702393</ele>
        <time>2010-08-16T12:50:29Z</time>
      </trkpt>
      <trkpt lat="44.6603" lon="6.63828">
        <ele>965.592896</ele>
        <time>2010-08-16T12:50:33Z</time>
      </trkpt>
      <trkpt lat="44.66022" lon="6.63792">
        <ele>963.937622</ele>
        <time>2010-08-16T12:50:38Z</time>
      </trkpt>
      <trkpt lat="44.66017" lon="6.63755">
        <ele>962.865845</ele>
        <time>2010-08-16T12:50:42Z</time>
      </trkpt>
      <trkpt lat="44.6601" lon="6.63713">
        <ele>962.379883</ele>
        <time>2010-08-16T12:50:46Z</time>
      </trkpt>
      <trkpt lat="44.66003" lon="6.63693">
        <ele>962.041748</ele>
        <time>2010-08-16T12:50:48Z</time>
      </trkpt>
      <trkpt lat="44.65995" lon="6.63673">
        <ele>961.866089</ele>
        <time>2010-08-16T12:50:50Z</time>
      </trkpt>
      <trkpt lat="44.65985" lon="6.63657">
        <ele>960.816772</ele>
        <time>2010-08-16T12:50:53Z</time>
      </trkpt>
      <trkpt lat="44.6597" lon="6.6362">
        <ele>958.984375</ele>
        <time>2010-08-16T12:50:56Z</time>
      </trkpt>
      <trkpt lat="44.65947" lon="6.63552">
        <ele>955.560669</ele>
        <time>2010-08-16T12:51:03Z</time>
      </trkpt>
      <trkpt lat="44.65942" lon="6.6353">
        <ele>954.670044</ele>
        <time>2010-08-16T12:51:05Z</time>
      </trkpt>
      <trkpt lat="44.65928" lon="6.63457">
        <ele>952.886963</ele>
        <time>2010-08-16T12:51:12Z</time>
      </trkpt>
      <trkpt lat="44.65928" lon="6.63437">
        <ele>952.756775</ele>
        <time>2010-08-16T12:51:14Z</time>
      </trkpt>
      <trkpt lat="44.6593" lon="6.63417">
        <ele>952.236816</ele>
        <time>2010-08-16T12:51:16Z</time>
      </trkpt>
      <trkpt lat="44.65937" lon="6.63352">
        <ele>948.927612</ele>
        <time>2010-08-16T12:51:23Z</time>
      </trkpt>
      <trkpt lat="44.6593" lon="6.6332">
        <ele>944.91217</ele>
        <time>2010-08-16T12:51:27Z</time>
      </trkpt>
      <trkpt lat="44.65918" lon="6.6327">
        <ele>940.116882</ele>
        <time>2010-08-16T12:51:33Z</time>
      </trkpt>
      <trkpt lat="44.65903" lon="6.63247">
        <ele>938.737305</ele>
        <time>2010-08-16T12:51:38Z</time>
      </trkpt>
      <trkpt lat="44.65908" lon="6.6322">
        <ele>937.197876</ele>
        <time>2010-08-16T12:51:45Z</time>
      </trkpt>
      <trkpt lat="44.65915" lon="6.63203">
        <ele>936.418396</ele>
        <time>2010-08-16T12:51:47Z</time>
      </trkpt>
      <trkpt lat="44.65927" lon="6.6318">
        <ele>935.841797</ele>
        <time>2010-08-16T12:51:51Z</time>
      </trkpt>
      <trkpt lat="44.6594" lon="6.63153">
        <ele>935.700745</ele>
        <time>2010-08-16T12:51:55Z</time>
      </trkpt>
      <trkpt lat="44.65948" lon="6.63135">
        <ele>935.392395</ele>
        <time>2010-08-16T12:51:57Z</time>
      </trkpt>
      <trkpt lat="44.65955" lon="6.63117">
        <ele>934.779114</ele>
        <time>2010-08-16T12:52:00Z</time>
      </trkpt>
      <trkpt lat="44.65965" lon="6.63083">
        <ele>933.390137</ele>
        <time>2010-08-16T12:52:02Z</time>
      </trkpt>
      <trkpt lat="44.65972" lon="6.63062">
        <ele>932.5047</ele>
        <time>2010-08-16T12:52:04Z</time>
      </trkpt>
      <trkpt lat="44.65977" lon="6.63037">
        <ele>931.274719</ele>
        <time>2010-08-16T12:52:06Z</time>
      </trkpt>
      <trkpt lat="44.65988" lon="6.62988">
        <ele>928.927002</ele>
        <time>2010-08-16T12:52:11Z</time>
      </trkpt>
      <trkpt lat="44.66002" lon="6.62953">
        <ele>927.332214</ele>
        <time>2010-08-16T12:52:13Z</time>
      </trkpt>
      <trkpt lat="44.66023" lon="6.62905">
        <ele>924.78302</ele>
        <time>2010-08-16T12:52:17Z</time>
      </trkpt>
      <trkpt lat="44.66035" lon="6.62883">
        <ele>923.697937</ele>
        <time>2010-08-16T12:52:19Z</time>
      </trkpt>
      <trkpt lat="44.66048" lon="6.62867">
        <ele>923.00946</ele>
        <time>2010-08-16T12:52:21Z</time>
      </trkpt>
      <trkpt lat="44.6606" lon="6.62857">
        <ele>922.702209</ele>
        <time>2010-08-16T12:52:23Z</time>
      </trkpt>
      <trkpt lat="44.6607" lon="6.6284">
        <ele>921.589722</ele>
        <time>2010-08-16T12:52:28Z</time>
      </trkpt>
      <trkpt lat="44.66053" lon="6.62835">
        <ele>920.405579</ele>
        <time>2010-08-16T12:52:32Z</time>
      </trkpt>
      <trkpt lat="44.6604" lon="6.6283">
        <ele>919.404663</ele>
        <time>2010-08-16T12:52:39Z</time>
      </trkpt>
      <trkpt lat="44.66025" lon="6.62835">
        <ele>919.189758</ele>
        <time>2010-08-16T12:52:43Z</time>
      </trkpt>
    </trkseg>
  </trk>
</gpx>